Observation data for Mertzon on 06/25/2019      Previous  Date  Next       Current Mesonet Observations  Soil Data  Daily Summary Page  Observations in Plain Language
KME1 250500Z 14008KT 22/14 A2991 RMK A01 T02220144  RH  061%=      5-min Rain = 0
KME1 250501Z 13011G18KT 22/14 A299 RMK A01 T02220143  RH  061%=      5-min Rain = 0
KME1 250502Z 13011G18KT 22/14 A2989 RMK A01 T02230141  RH  060%=      5-min Rain = 0
KME1 250503Z 14012G19KT 23/14 A2989 RMK A01 T02250142  RH  059%=      5-min Rain = 0
KME1 250504Z 14023G29KT 23/14 A2988 RMK A01 T02270142  RH  059%=      5-min Rain = 0
KME1 250505Z 15025G30KT 23/14 A2988 RMK A01 T02300141  RH  057%=      5-min Rain = 0
KME1 250506Z 15018KT 23/14 A2988 RMK A01 T02320142  RH  057%=      5-min Rain = 0
KME1 250507Z 14017G23KT 23/14 A2989 RMK A01 T02330143  RH  057%=      5-min Rain = 0
KME1 250508Z 14015KT 23/14 A2989 RMK A01 T02330143  RH  057%=      5-min Rain = 0
KME1 250509Z 16014KT 23/14 A2989 RMK A01 T02320143  RH  057%=      5-min Rain = 0
KME1 250510Z 16012G20KT 23/14 A2989 RMK A01 T02320142  RH  057%=      5-min Rain = 0
KME1 250511Z 17019G26KT 23/14 A2989 RMK A01 T02320142  RH  057%=      5-min Rain = 0
KME1 250512Z 17018G25KT 23/14 A2989 RMK A01 T02320143  RH  057%=      5-min Rain = 0
KME1 250513Z 17018G24KT 23/14 A299 RMK A01 T02310142  RH  057%=      5-min Rain = 0
KME1 250514Z 16014KT 23/14 A299 RMK A01 T02310142  RH  057%=      5-min Rain = 0
KME1 250515Z 17014KT 23/14 A2989 RMK A01 T02310141  RH  057%=      5-min Rain = 0
KME1 250516Z 18016G21KT 23/14 A2989 RMK A01 T02310141  RH  057%=      5-min Rain = 0
KME1 250517Z 17017G22KT 23/14 A2989 RMK A01 T02300141  RH  057%=      5-min Rain = 0
KME1 250518Z 17018KT 23/14 A2989 RMK A01 T02290140  RH  057%=      5-min Rain = 0
KME1 250519Z 17017G24KT 23/14 A2989 RMK A01 T02290139  RH  057%=      5-min Rain = 0
KME1 250520Z 19016KT 23/14 A2989 RMK A01 T02290137  RH  056%=      5-min Rain = 0
KME1 250521Z 17015KT 23/14 A2989 RMK A01 T02310138  RH  056%=      5-min Rain = 0
KME1 250522Z 18014KT 23/14 A2989 RMK A01 T02300140  RH  056%=      5-min Rain = 0
KME1 250523Z 17015G22KT 23/14 A2989 RMK A01 T02290139  RH  057%=      5-min Rain = 0
KME1 250524Z 17012G17KT 23/14 A2989 RMK A01 T02280139  RH  057%=      5-min Rain = 0
KME1 250525Z 18012G21KT 23/14 A2989 RMK A01 T02270139  RH  057%=      5-min Rain = 0
KME1 250526Z 18014G22KT 23/14 A2989 RMK A01 T02270140  RH  058%=      5-min Rain = 0
KME1 250527Z 16012KT 23/14 A2989 RMK A01 T02260140  RH  058%=      5-min Rain = 0
KME1 250528Z 17011G17KT 23/14 A2989 RMK A01 T02250140  RH  059%=      5-min Rain = 0
KME1 250529Z 17010KT 22/14 A2989 RMK A01 T02240141  RH  059%=      5-min Rain = 0
KME1 250530Z 17013KT 22/14 A299 RMK A01 T02220141  RH  060%=      5-min Rain = 0
KME1 250531Z 16013KT 22/14 A2989 RMK A01 T02210140  RH  060%=      5-min Rain = 0
KME1 250532Z 17010KT 22/14 A299 RMK A01 T02210140  RH  060%=      5-min Rain = 0
KME1 250533Z 17009KT 22/14 A2989 RMK A01 T02200141  RH  061%=      5-min Rain = 0
KME1 250534Z 17011G17KT 22/14 A2989 RMK A01 T02190140  RH  061%=      5-min Rain = 0
KME1 250535Z 17011G18KT 22/14 A299 RMK A01 T02200141  RH  061%=      5-min Rain = 0
KME1 250536Z 18010KT 22/14 A299 RMK A01 T02190141  RH  061%=      5-min Rain = 0
KME1 250537Z 18011KT 22/14 A299 RMK A01 T02190141  RH  061%=      5-min Rain = 0
KME1 250538Z 19009G14KT 22/14 A299 RMK A01 T02180141  RH  061%=      5-min Rain = 0
KME1 250539Z 19011KT 22/14 A299 RMK A01 T02180140  RH  061%=      5-min Rain = 0
KME1 250540Z 19009KT 22/14 A299 RMK A01 T02190140  RH  061%=      5-min Rain = 0
KME1 250541Z 19009KT 22/14 A299 RMK A01 T02190141  RH  061%=      5-min Rain = 0
KME1 250542Z 19009KT 22/14 A299 RMK A01 T02180141  RH  061%=      5-min Rain = 0
KME1 250543Z 19010KT 22/14 A2991 RMK A01 T02180141  RH  061%=      5-min Rain = 0
KME1 250544Z 19008KT 22/14 A2991 RMK A01 T02180140  RH  061%=      5-min Rain = 0
KME1 250545Z 19009KT 22/14 A2991 RMK A01 T02180142  RH  062%=      5-min Rain = 0
KME1 250546Z 18010KT 22/14 A2991 RMK A01 T02170142  RH  062%=      5-min Rain = 0
KME1 250547Z 18010KT 22/14 A2991 RMK A01 T02160142  RH  063%=      5-min Rain = 0
KME1 250548Z 18011KT 22/14 A2991 RMK A01 T02160142  RH  063%=      5-min Rain = 0
KME1 250549Z 18009KT 22/14 A2991 RMK A01 T02160143  RH  063%=      5-min Rain = 0
KME1 250550Z 18009KT 22/14 A2991 RMK A01 T02160144  RH  064%=      5-min Rain = 0
KME1 250551Z 18008KT 22/14 A2991 RMK A01 T02160144  RH  064%=      5-min Rain = 0
KME1 250552Z 18007KT 22/15 A2992 RMK A01 T02160145  RH  064%=      5-min Rain = 0
KME1 250553Z 20007KT 22/15 A2992 RMK A01 T02150147  RH  065%=      5-min Rain = 0
KME1 250554Z 20007KT 21/15 A2992 RMK A01 T02140146  RH  065%=      5-min Rain = 0
KME1 250555Z 19009KT 21/15 A2992 RMK A01 T02140146  RH  065%=      5-min Rain = 0
KME1 250556Z 19007KT 21/15 A2992 RMK A01 T02140147  RH  066%=      5-min Rain = 0
KME1 250557Z 19008KT 21/15 A2992 RMK A01 T02140149  RH  066%=      5-min Rain = 0
KME1 250558Z 20008KT 21/15 A2992 RMK A01 T02130149  RH  067%=      5-min Rain = 0
KME1 250559Z 20009KT 21/15 A2992 RMK A01 T02130150  RH  067%=      5-min Rain = 0
KME1 250600Z 20010KT 21/15 A2992 RMK A01 T02130151  RH  068%=      5-min Rain = 0
KME1 250601Z 21011KT 21/15 A2992 RMK A01 T02120152  RH  068%=      5-min Rain = 0
KME1 250602Z 21011KT 21/15 A2992 RMK A01 T02120152  RH  069%=      5-min Rain = 0
KME1 250603Z 21010KT 21/15 A2992 RMK A01 T02120152  RH  069%=      5-min Rain = 0
KME1 250604Z 21008KT 21/15 A2992 RMK A01 T02120152  RH  069%=      5-min Rain = 0
KME1 250605Z 21010KT 21/15 A2992 RMK A01 T02110152  RH  069%=      5-min Rain = 0
KME1 250606Z 21010KT 21/15 A2993 RMK A01 T02120153  RH  069%=      5-min Rain = 0
KME1 250607Z 21011KT 21/15 A2993 RMK A01 T02120152  RH  069%=      5-min Rain = 0
KME1 250608Z 21013KT 21/15 A2993 RMK A01 T02120152  RH  068%=      5-min Rain = 0
KME1 250609Z 20012KT 21/15 A2993 RMK A01 T02130151  RH  068%=      5-min Rain = 0
KME1 250610Z 19011KT 21/15 A2993 RMK A01 T02140152  RH  068%=      5-min Rain = 0
KME1 250611Z 20013KT 21/15 A2993 RMK A01 T02140153  RH  068%=      5-min Rain = 0
KME1 250612Z 20010KT 21/15 A2993 RMK A01 T02140153  RH  068%=      5-min Rain = 0
KME1 250613Z 20011KT 21/15 A2993 RMK A01 T02140154  RH  069%=      5-min Rain = 0
KME1 250614Z 20011KT 21/16 A2993 RMK A01 T02140155  RH  069%=      5-min Rain = 0
KME1 250615Z 19008KT 21/16 A2993 RMK A01 T02140155  RH  069%=      5-min Rain = 0
KME1 250616Z 19009KT 21/16 A2993 RMK A01 T02140156  RH  069%=      5-min Rain = 0
KME1 250617Z 20006KT 21/16 A2993 RMK A01 T02140156  RH  069%=      5-min Rain = 0
KME1 250618Z 19007KT 21/16 A2994 RMK A01 T02140157  RH  070%=      5-min Rain = 0
KME1 250619Z 18011KT 21/16 A2994 RMK A01 T02130157  RH  070%=      5-min Rain = 0
KME1 250620Z 19008KT 21/16 A2994 RMK A01 T02130157  RH  070%=      5-min Rain = 0
KME1 250621Z 20007KT 21/16 A2994 RMK A01 T02130158  RH  071%=      5-min Rain = 0
KME1 250622Z 21005KT 21/16 A2995 RMK A01 T02130158  RH  071%=      5-min Rain = 0
KME1 250623Z 20005KT 21/16 A2995 RMK A01 T02130158  RH  071%=      5-min Rain = 0
KME1 250624Z 19005KT 21/16 A2995 RMK A01 T02120157  RH  071%=      5-min Rain = 0
KME1 250625Z 18002KT 21/16 A2995 RMK A01 T02120158  RH  071%=      5-min Rain = 0
KME1 250626Z 14000KT 21/16 A2995 RMK A01 T02110158  RH  071%=      5-min Rain = 0
KME1 250627Z 19004KT 21/16 A2995 RMK A01 T02110157  RH  071%=      5-min Rain = 0
KME1 250628Z 20002KT 21/16 A2996 RMK A01 T02110155  RH  070%=      5-min Rain = 0
KME1 250629Z 28001KT 21/16 A2996 RMK A01 T02130155  RH  070%=      5-min Rain = 0
KME1 250630Z 32002KT 21/16 A2996 RMK A01 T02130156  RH  070%=      5-min Rain = 0
KME1 250631Z 35002KT 21/16 A2996 RMK A01 T02120158  RH  071%=      5-min Rain = 0
KME1 250632Z 00002KT 21/16 A2996 RMK A01 T02110158  RH  072%=      5-min Rain = 0
KME1 250633Z 29002KT 21/16 A2996 RMK A01 T02100157  RH  072%=      5-min Rain = 0
KME1 250634Z 28003KT 21/16 A2996 RMK A01 T02090157  RH  072%=      5-min Rain = 0
KME1 250635Z 29003KT 21/16 A2996 RMK A01 T02080157  RH  073%=      5-min Rain = 0
KME1 250636Z 28001KT 21/16 A2996 RMK A01 T02070157  RH  073%=      5-min Rain = 0
KME1 250637Z 31001KT 21/16 A2996 RMK A01 T02060156  RH  073%=      5-min Rain = 0
KME1 250638Z 29001KT 21/16 A2996 RMK A01 T02060157  RH  073%=      5-min Rain = 0
KME1 250639Z 27000KT 21/16 A2996 RMK A01 T02050158  RH  074%=      5-min Rain = 0
KME1 250640Z 19002KT 21/16 A2996 RMK A01 T02050156  RH  074%=      5-min Rain = 0
KME1 250641Z 18002KT 21/16 A2996 RMK A01 T02050156  RH  073%=      5-min Rain = 0
KME1 250642Z 12002KT 21/16 A2997 RMK A01 T02060158  RH  074%=      5-min Rain = 0
KME1 250643Z 03002KT 20/16 A2997 RMK A01 T02030159  RH  076%=      5-min Rain = 0
KME1 250644Z 01002KT 20/16 A2997 RMK A01 T02000158  RH  077%=      5-min Rain = 0
KME1 250645Z 00002KT 20/16 A2997 RMK A01 T01990158  RH  078%=      5-min Rain = 0
KME1 250646Z 07001KT 20/16 A2997 RMK A01 T01980159  RH  078%=      5-min Rain = 0
KME1 250647Z 05001KT 20/16 A2997 RMK A01 T01970158  RH  078%=      5-min Rain = 0
KME1 250648Z 04003KT 20/16 A2997 RMK A01 T01960159  RH  079%=      5-min Rain = 0
KME1 250649Z 03002KT 20/16 A2997 RMK A01 T01950158  RH  079%=      5-min Rain = 0
KME1 250650Z 02004KT 20/16 A2997 RMK A01 T01960158  RH  079%=      5-min Rain = 0
KME1 250651Z 01004KT 20/16 A2997 RMK A01 T01970159  RH  079%=      5-min Rain = 0
KME1 250652Z 00004KT 20/16 A2996 RMK A01 T01960160  RH  080%=      5-min Rain = 0
KME1 250653Z 01002KT 20/16 A2996 RMK A01 T01950160  RH  080%=      5-min Rain = 0
KME1 250654Z 01003KT 19/16 A2996 RMK A01 T01940160  RH  081%=      5-min Rain = 0
KME1 250655Z 03002KT 19/16 A2996 RMK A01 T01940159  RH  080%=      5-min Rain = 0
KME1 250656Z 06001KT 19/16 A2996 RMK A01 T01940159  RH  080%=      5-min Rain = 0
KME1 250657Z 12001KT 20/16 A2996 RMK A01 T01950159  RH  080%=      5-min Rain = 0
KME1 250658Z 12001KT 20/16 A2996 RMK A01 T01950159  RH  080%=      5-min Rain = 0
KME1 250659Z 13003KT 20/16 A2995 RMK A01 T01950159  RH  080%=      5-min Rain = 0
KME1 250700Z 13003KT 19/16 A2995 RMK A01 T01940160  RH  081%=      5-min Rain = 0
KME1 250701Z 16005KT 19/16 A2995 RMK A01 T01910159  RH  082%=      5-min Rain = 0
KME1 250702Z 17004KT 19/16 A2995 RMK A01 T01900160  RH  082%=      5-min Rain = 0
KME1 250703Z 16005KT 19/16 A2995 RMK A01 T01890159  RH  083%=      5-min Rain = 0
KME1 250704Z 16006KT 19/16 A2995 RMK A01 T01890159  RH  083%=      5-min Rain = 0
KME1 250705Z 17007KT 19/16 A2995 RMK A01 T01900159  RH  082%=      5-min Rain = 0
KME1 250706Z 18006KT 19/16 A2995 RMK A01 T01910160  RH  082%=      5-min Rain = 0
KME1 250707Z 18007KT 19/16 A2995 RMK A01 T01910161  RH  082%=      5-min Rain = 0
KME1 250708Z 18007KT 19/16 A2995 RMK A01 T01910161  RH  083%=      5-min Rain = 0
KME1 250709Z 17007KT 19/16 A2995 RMK A01 T01910161  RH  083%=      5-min Rain = 0
KME1 250710Z 18007KT 19/16 A2995 RMK A01 T01910162  RH  083%=      5-min Rain = 0
KME1 250711Z 18006KT 19/16 A2995 RMK A01 T01900162  RH  084%=      5-min Rain = 0
KME1 250712Z 18005KT 19/16 A2995 RMK A01 T01900163  RH  084%=      5-min Rain = 0
KME1 250713Z 17005KT 19/16 A2995 RMK A01 T01900162  RH  084%=      5-min Rain = 0
KME1 250714Z 18004KT 19/16 A2995 RMK A01 T01910162  RH  083%=      5-min Rain = 0
KME1 250715Z 17003KT 19/16 A2996 RMK A01 T01910161  RH  083%=      5-min Rain = 0
KME1 250716Z 15001KT 19/16 A2996 RMK A01 T01910161  RH  083%=      5-min Rain = 0
KME1 250717Z 11001KT 19/16 A2996 RMK A01 T01910161  RH  083%=      5-min Rain = 0
KME1 250718Z 05002KT 19/16 A2996 RMK A01 T01910162  RH  083%=      5-min Rain = 0
KME1 250719Z 03003KT 19/16 A2996 RMK A01 T01890162  RH  084%=      5-min Rain = 0
KME1 250720Z 03004KT 19/16 A2996 RMK A01 T01870162  RH  086%=      5-min Rain = 0
KME1 250721Z 02003KT 19/16 A2996 RMK A01 T01850162  RH  086%=      5-min Rain = 0
KME1 250722Z 03004KT 19/16 A2996 RMK A01 T01850162  RH  087%=      5-min Rain = 0
KME1 250723Z 02004KT 18/16 A2996 RMK A01 T01840162  RH  087%=      5-min Rain = 0
KME1 250724Z 01006KT 19/16 A2996 RMK A01 T01850162  RH  086%=      5-min Rain = 0
KME1 250725Z 00005KT 19/16 A2996 RMK A01 T01860163  RH  087%=      5-min Rain = 0
KME1 250726Z 36005KT 19/16 A2996 RMK A01 T01850164  RH  087%=      5-min Rain = 0
KME1 250727Z 35005KT 19/16 A2996 RMK A01 T01850164  RH  088%=      5-min Rain = 0
KME1 250728Z 35004KT 19/17 A2996 RMK A01 T01850165  RH  088%=      5-min Rain = 0
KME1 250729Z 34004KT 19/16 A2996 RMK A01 T01850164  RH  088%=      5-min Rain = 0
KME1 250730Z 35004KT 19/16 A2996 RMK A01 T01850163  RH  087%=      5-min Rain = 0
KME1 250731Z 33004KT 19/16 A2997 RMK A01 T01870162  RH  085%=      5-min Rain = 0
KME1 250732Z 33003KT 19/16 A2997 RMK A01 T01900162  RH  084%=      5-min Rain = 0
KME1 250733Z 35001KT 19/16 A2997 RMK A01 T01900163  RH  084%=      5-min Rain = 0
KME1 250734Z 31000KT 19/16 A2997 RMK A01 T01900163  RH  084%=      5-min Rain = 0
KME1 250735Z 30001KT 19/16 A2997 RMK A01 T01900163  RH  085%=      5-min Rain = 0
KME1 250736Z 26000KT 19/16 A2997 RMK A01 T01890162  RH  084%=      5-min Rain = 0
KME1 250737Z 28000KT 19/16 A2997 RMK A01 T01890162  RH  084%=      5-min Rain = 0
KME1 250738Z 26002KT 19/16 A2997 RMK A01 T01890162  RH  084%=      5-min Rain = 0
KME1 250739Z 22003KT 19/16 A2997 RMK A01 T01890161  RH  084%=      5-min Rain = 0
KME1 250740Z 20005KT 19/16 A2997 RMK A01 T01880162  RH  085%=      5-min Rain = 0
KME1 250741Z 20005KT 19/16 A2996 RMK A01 T01860162  RH  086%=      5-min Rain = 0
KME1 250742Z 20006KT 19/16 A2996 RMK A01 T01860162  RH  086%=      5-min Rain = 0
KME1 250743Z 20005KT 19/16 A2996 RMK A01 T01850163  RH  087%=      5-min Rain = 0
KME1 250744Z 21006KT 18/16 A2996 RMK A01 T01830163  RH  088%=      5-min Rain = 0
KME1 250745Z 21007KT 18/16 A2996 RMK A01 T01830163  RH  088%=      5-min Rain = 0
KME1 250746Z 20007KT 18/16 A2996 RMK A01 T01820163  RH  089%=      5-min Rain = 0
KME1 250747Z 20007KT 18/16 A2996 RMK A01 T01820163  RH  089%=      5-min Rain = 0
KME1 250748Z 19006KT 18/16 A2996 RMK A01 T01820161  RH  088%=      5-min Rain = 0
KME1 250749Z 18006KT 18/16 A2996 RMK A01 T01840160  RH  086%=      5-min Rain = 0
KME1 250750Z 18005KT 19/16 A2996 RMK A01 T01850159  RH  085%=      5-min Rain = 0
KME1 250751Z 18005KT 19/16 A2996 RMK A01 T01880158  RH  083%=      5-min Rain = 0
KME1 250752Z 18006KT 19/16 A2996 RMK A01 T01890158  RH  082%=      5-min Rain = 0
KME1 250753Z 18006KT 19/16 A2996 RMK A01 T01900158  RH  081%=      5-min Rain = 0
KME1 250754Z 18006KT 19/16 A2996 RMK A01 T01910157  RH  081%=      5-min Rain = 0
KME1 250755Z 17006KT 19/16 A2996 RMK A01 T01910157  RH  081%=      5-min Rain = 0
KME1 250756Z 18005KT 19/16 A2996 RMK A01 T01920158  RH  081%=      5-min Rain = 0
KME1 250757Z 19004KT 19/16 A2996 RMK A01 T01910158  RH  081%=      5-min Rain = 0
KME1 250758Z 19004KT 19/16 A2996 RMK A01 T01900158  RH  081%=      5-min Rain = 0
KME1 250759Z 18004KT 19/16 A2995 RMK A01 T01900158  RH  082%=      5-min Rain = 0
KME1 250800Z 19004KT 19/16 A2995 RMK A01 T01900158  RH  082%=      5-min Rain = 0
KME1 250801Z 21003KT 19/16 A2995 RMK A01 T01900158  RH  081%=      5-min Rain = 0
KME1 250802Z 21003KT 19/16 A2995 RMK A01 T01900158  RH  081%=      5-min Rain = 0
KME1 250803Z 22003KT 19/16 A2995 RMK A01 T01900157  RH  081%=      5-min Rain = 0
KME1 250804Z 23003KT 19/16 A2995 RMK A01 T01900157  RH  081%=      5-min Rain = 0
KME1 250805Z 22004KT 19/16 A2996 RMK A01 T01890157  RH  082%=      5-min Rain = 0
KME1 250806Z 20006KT 19/16 A2996 RMK A01 T01890155  RH  081%=      5-min Rain = 0
KME1 250807Z 20005KT 19/16 A2996 RMK A01 T01910155  RH  080%=      5-min Rain = 0
KME1 250808Z 20003KT 19/15 A2996 RMK A01 T01930154  RH  078%=      5-min Rain = 0
KME1 250809Z 20004KT 19/16 A2995 RMK A01 T01940155  RH  078%=      5-min Rain = 0
KME1 250810Z 20004KT 19/16 A2995 RMK A01 T01940156  RH  079%=      5-min Rain = 0
KME1 250811Z 19004KT 19/16 A2995 RMK A01 T01930156  RH  079%=      5-min Rain = 0
KME1 250812Z 19003KT 19/16 A2995 RMK A01 T01930157  RH  079%=      5-min Rain = 0
KME1 250813Z 19003KT 19/16 A2995 RMK A01 T01930156  RH  079%=      5-min Rain = 0
KME1 250814Z 18005KT 19/16 A2995 RMK A01 T01920156  RH  079%=      5-min Rain = 0
KME1 250815Z 20005KT 19/16 A2995 RMK A01 T01930156  RH  079%=      5-min Rain = 0
KME1 250816Z 18004KT 19/16 A2995 RMK A01 T01930156  RH  079%=      5-min Rain = 0
KME1 250817Z 19005KT 19/16 A2995 RMK A01 T01930157  RH  079%=      5-min Rain = 0
KME1 250818Z 17004KT 19/16 A2995 RMK A01 T01930157  RH  080%=      5-min Rain = 0
KME1 250819Z 18004KT 19/16 A2995 RMK A01 T01930158  RH  080%=      5-min Rain = 0
KME1 250820Z 17004KT 19/16 A2995 RMK A01 T01930158  RH  080%=      5-min Rain = 0
KME1 250821Z 17003KT 19/16 A2995 RMK A01 T01930158  RH  080%=      5-min Rain = 0
KME1 250822Z 17004KT 19/16 A2995 RMK A01 T01920158  RH  081%=      5-min Rain = 0
KME1 250823Z 16004KT 19/16 A2995 RMK A01 T01910158  RH  081%=      5-min Rain = 0
KME1 250824Z 16003KT 19/16 A2995 RMK A01 T01920158  RH  081%=      5-min Rain = 0
KME1 250825Z 14003KT 19/16 A2995 RMK A01 T01910158  RH  081%=      5-min Rain = 0
KME1 250826Z 14003KT 19/16 A2995 RMK A01 T01910157  RH  081%=      5-min Rain = 0
KME1 250827Z 14003KT 19/16 A2995 RMK A01 T01890157  RH  082%=      5-min Rain = 0
KME1 250828Z 15003KT 19/16 A2995 RMK A01 T01880156  RH  082%=      5-min Rain = 0
KME1 250829Z 16003KT 19/16 A2995 RMK A01 T01880157  RH  082%=      5-min Rain = 0
KME1 250830Z 16003KT 19/16 A2995 RMK A01 T01880156  RH  082%=      5-min Rain = 0
KME1 250831Z 16003KT 19/16 A2994 RMK A01 T01880156  RH  081%=      5-min Rain = 0
KME1 250832Z 16002KT 19/16 A2994 RMK A01 T01890156  RH  082%=      5-min Rain = 0
KME1 250833Z 15003KT 19/16 A2994 RMK A01 T01890156  RH  081%=      5-min Rain = 0
KME1 250834Z 15002KT 19/16 A2994 RMK A01 T01890156  RH  081%=      5-min Rain = 0
KME1 250835Z 16003KT 19/16 A2994 RMK A01 T01890156  RH  081%=      5-min Rain = 0
KME1 250836Z 16003KT 19/16 A2994 RMK A01 T01900156  RH  081%=      5-min Rain = 0
KME1 250837Z 16003KT 19/16 A2994 RMK A01 T01900156  RH  081%=      5-min Rain = 0
KME1 250838Z 17004KT 19/16 A2994 RMK A01 T01900157  RH  081%=      5-min Rain = 0
KME1 250839Z 16003KT 19/16 A2994 RMK A01 T01900157  RH  081%=      5-min Rain = 0
KME1 250840Z 17004KT 19/16 A2994 RMK A01 T01890156  RH  081%=      5-min Rain = 0
KME1 250841Z 18004KT 19/16 A2994 RMK A01 T01890156  RH  082%=      5-min Rain = 0
KME1 250842Z 18005KT 19/16 A2994 RMK A01 T01880157  RH  082%=      5-min Rain = 0
KME1 250843Z 19005KT 19/16 A2994 RMK A01 T01880157  RH  083%=      5-min Rain = 0
KME1 250844Z 19004KT 19/16 A2994 RMK A01 T01870158  RH  083%=      5-min Rain = 0
KME1 250845Z 19005KT 19/16 A2994 RMK A01 T01870159  RH  084%=      5-min Rain = 0
KME1 250846Z 20004KT 19/16 A2993 RMK A01 T01860159  RH  084%=      5-min Rain = 0
KME1 250847Z 19004KT 19/16 A2994 RMK A01 T01870159  RH  084%=      5-min Rain = 0
KME1 250848Z 19004KT 19/16 A2994 RMK A01 T01870159  RH  084%=      5-min Rain = 0
KME1 250849Z 19004KT 19/16 A2994 RMK A01 T01870158  RH  083%=      5-min Rain = 0
KME1 250850Z 19004KT 19/16 A2994 RMK A01 T01870158  RH  083%=      5-min Rain = 0
KME1 250851Z 19004KT 19/16 A2994 RMK A01 T01870159  RH  083%=      5-min Rain = 0
KME1 250852Z 20005KT 19/16 A2994 RMK A01 T01870159  RH  084%=      5-min Rain = 0
KME1 250853Z 19004KT 19/16 A2994 RMK A01 T01870159  RH  084%=      5-min Rain = 0
KME1 250854Z 19004KT 19/16 A2994 RMK A01 T01870159  RH  084%=      5-min Rain = 0
KME1 250855Z 19005KT 19/16 A2994 RMK A01 T01870159  RH  084%=      5-min Rain = 0
KME1 250856Z 19005KT 19/16 A2994 RMK A01 T01870158  RH  084%=      5-min Rain = 0
KME1 250857Z 19004KT 19/16 A2994 RMK A01 T01870159  RH  084%=      5-min Rain = 0
KME1 250858Z 19005KT 19/16 A2994 RMK A01 T01860158  RH  084%=      5-min Rain = 0
KME1 250859Z 19005KT 19/16 A2994 RMK A01 T01860158  RH  084%=      5-min Rain = 0
KME1 250900Z 18005KT 19/16 A2993 RMK A01 T01850159  RH  085%=      5-min Rain = 0
KME1 250901Z 18005KT 19/16 A2993 RMK A01 T01850159  RH  085%=      5-min Rain = 0
KME1 250902Z 17005KT 19/16 A2993 RMK A01 T01850159  RH  085%=      5-min Rain = 0
KME1 250903Z 18004KT 19/16 A2994 RMK A01 T01850159  RH  085%=      5-min Rain = 0
KME1 250904Z 18005KT 19/16 A2994 RMK A01 T01850160  RH  085%=      5-min Rain = 0
KME1 250905Z 18004KT 19/16 A2994 RMK A01 T01850160  RH  085%=      5-min Rain = 0
KME1 250906Z 16003KT 19/16 A2993 RMK A01 T01850159  RH  085%=      5-min Rain = 0
KME1 250907Z 18005KT 19/16 A2993 RMK A01 T01850159  RH  085%=      5-min Rain = 0
KME1 250908Z 17005KT 19/16 A2993 RMK A01 T01850158  RH  084%=      5-min Rain = 0
KME1 250909Z 16004KT 19/16 A2993 RMK A01 T01860158  RH  084%=      5-min Rain = 0
KME1 250910Z 17004KT 19/16 A2994 RMK A01 T01860158  RH  084%=      5-min Rain = 0
KME1 250911Z 15004KT 19/16 A2994 RMK A01 T01870159  RH  084%=      5-min Rain = 0
KME1 250912Z 16003KT 19/16 A2994 RMK A01 T01870159  RH  084%=      5-min Rain = 0
KME1 250913Z 18003KT 19/16 A2994 RMK A01 T01860159  RH  084%=      5-min Rain = 0
KME1 250914Z 19003KT 19/16 A2994 RMK A01 T01860159  RH  084%=      5-min Rain = 0
KME1 250915Z 18003KT 19/16 A2994 RMK A01 T01860159  RH  084%=      5-min Rain = 0
KME1 250916Z 17003KT 19/16 A2994 RMK A01 T01860159  RH  084%=      5-min Rain = 0
KME1 250917Z 16003KT 19/16 A2994 RMK A01 T01860158  RH  084%=      5-min Rain = 0
KME1 250918Z 17003KT 19/16 A2994 RMK A01 T01860157  RH  083%=      5-min Rain = 0
KME1 250919Z 17004KT 19/16 A2994 RMK A01 T01860157  RH  083%=      5-min Rain = 0
KME1 250920Z 17004KT 19/16 A2994 RMK A01 T01850157  RH  083%=      5-min Rain = 0
KME1 250921Z 17004KT 19/16 A2994 RMK A01 T01850157  RH  084%=      5-min Rain = 0
KME1 250922Z 18004KT 18/16 A2994 RMK A01 T01840157  RH  084%=      5-min Rain = 0
KME1 250923Z 19004KT 18/16 A2994 RMK A01 T01840157  RH  084%=      5-min Rain = 0
KME1 250924Z 20003KT 18/16 A2994 RMK A01 T01840158  RH  085%=      5-min Rain = 0
KME1 250925Z 21003KT 18/16 A2994 RMK A01 T01840158  RH  085%=      5-min Rain = 0
KME1 250926Z 21004KT 18/16 A2994 RMK A01 T01840158  RH  085%=      5-min Rain = 0
KME1 250927Z 22004KT 18/16 A2993 RMK A01 T01830158  RH  085%=      5-min Rain = 0
KME1 250928Z 22005KT 18/16 A2993 RMK A01 T01830159  RH  086%=      5-min Rain = 0
KME1 250929Z 21005KT 18/16 A2993 RMK A01 T01820159  RH  086%=      5-min Rain = 0
KME1 250930Z 20005KT 18/16 A2993 RMK A01 T01810159  RH  087%=      5-min Rain = 0
KME1 250931Z 20005KT 18/16 A2993 RMK A01 T01800159  RH  088%=      5-min Rain = 0
KME1 250932Z 20005KT 18/16 A2993 RMK A01 T01790160  RH  088%=      5-min Rain = 0
KME1 250933Z 20005KT 18/16 A2993 RMK A01 T01790160  RH  089%=      5-min Rain = 0
KME1 250934Z 21006KT 18/16 A2993 RMK A01 T01790161  RH  089%=      5-min Rain = 0
KME1 250935Z 20006KT 18/16 A2993 RMK A01 T01780162  RH  090%=      5-min Rain = 0
KME1 250936Z 21006KT 18/16 A2993 RMK A01 T01780162  RH  090%=      5-min Rain = 0
KME1 250937Z 20007KT 18/16 A2993 RMK A01 T01780163  RH  091%=      5-min Rain = 0
KME1 250938Z 20006KT 18/16 A2993 RMK A01 T01780164  RH  092%=      5-min Rain = 0
KME1 250939Z 20006KT 18/16 A2993 RMK A01 T01780164  RH  091%=      5-min Rain = 0
KME1 250940Z 20006KT 18/16 A2993 RMK A01 T01780164  RH  091%=      5-min Rain = 0
KME1 250941Z 20007KT 18/16 A2993 RMK A01 T01790164  RH  091%=      5-min Rain = 0
KME1 250942Z 20006KT 18/16 A2993 RMK A01 T01800163  RH  090%=      5-min Rain = 0
KME1 250943Z 20006KT 18/16 A2993 RMK A01 T01800163  RH  090%=      5-min Rain = 0
KME1 250944Z 20007KT 18/16 A2993 RMK A01 T01810163  RH  089%=      5-min Rain = 0
KME1 250945Z 19008KT 18/16 A2993 RMK A01 T01820163  RH  089%=      5-min Rain = 0
KME1 250946Z 20006KT 18/16 A2993 RMK A01 T01820163  RH  089%=      5-min Rain = 0
KME1 250947Z 20008KT 18/16 A2993 RMK A01 T01820163  RH  089%=      5-min Rain = 0
KME1 250948Z 20006KT 18/16 A2993 RMK A01 T01820163  RH  088%=      5-min Rain = 0
KME1 250949Z 20007KT 18/16 A2993 RMK A01 T01830163  RH  088%=      5-min Rain = 0
KME1 250950Z 20007KT 18/16 A2993 RMK A01 T01830163  RH  088%=      5-min Rain = 0
KME1 250951Z 20007KT 18/16 A2993 RMK A01 T01830163  RH  088%=      5-min Rain = 0
KME1 250952Z 20007KT 18/16 A2993 RMK A01 T01830164  RH  089%=      5-min Rain = 0
KME1 250953Z 20007KT 18/16 A2993 RMK A01 T01820164  RH  089%=      5-min Rain = 0
KME1 250954Z 20006KT 18/16 A2993 RMK A01 T01820164  RH  089%=      5-min Rain = 0
KME1 250955Z 20007KT 18/16 A2993 RMK A01 T01820164  RH  089%=      5-min Rain = 0
KME1 250956Z 20007KT 18/16 A2993 RMK A01 T01820164  RH  089%=      5-min Rain = 0
KME1 250957Z 20007KT 18/16 A2993 RMK A01 T01820163  RH  089%=      5-min Rain = 0
KME1 250958Z 20007KT 18/16 A2993 RMK A01 T01820163  RH  089%=      5-min Rain = 0
KME1 250959Z 20007KT 18/16 A2993 RMK A01 T01820163  RH  089%=      5-min Rain = 0
KME1 251000Z 20006KT 18/16 A2993 RMK A01 T01820164  RH  089%=      5-min Rain = 0
KME1 251001Z 20006KT 18/16 A2993 RMK A01 T01820164  RH  089%=      5-min Rain = 0
KME1 251002Z 20007KT 18/16 A2993 RMK A01 T01820164  RH  089%=      5-min Rain = 0
KME1 251003Z 20007KT 18/16 A2993 RMK A01 T01820163  RH  089%=      5-min Rain = 0
KME1 251004Z 20009KT 18/16 A2993 RMK A01 T01820163  RH  088%=      5-min Rain = 0
KME1 251005Z 20008KT 18/16 A2993 RMK A01 T01830163  RH  088%=      5-min Rain = 0
KME1 251006Z 20007KT 18/16 A2993 RMK A01 T01830163  RH  088%=      5-min Rain = 0
KME1 251007Z 20008KT 18/16 A2993 RMK A01 T01830163  RH  088%=      5-min Rain = 0
KME1 251008Z 20008KT 18/16 A2993 RMK A01 T01840162  RH  087%=      5-min Rain = 0
KME1 251009Z 20007KT 18/16 A2993 RMK A01 T01840162  RH  087%=      5-min Rain = 0
KME1 251010Z 20009KT 18/16 A2993 RMK A01 T01840162  RH  087%=      5-min Rain = 0
KME1 251011Z 19009G14KT 18/16 A2993 RMK A01 T01840162  RH  087%=      5-min Rain = 0
KME1 251012Z 20009KT 18/16 A2993 RMK A01 T01840162  RH  087%=      5-min Rain = 0
KME1 251013Z 20008KT 18/16 A2993 RMK A01 T01840161  RH  087%=      5-min Rain = 0
KME1 251014Z 20008KT 18/16 A2993 RMK A01 T01840161  RH  086%=      5-min Rain = 0
KME1 251015Z 20007KT 18/16 A2993 RMK A01 T01840162  RH  087%=      5-min Rain = 0
KME1 251016Z 20008KT 18/16 A2993 RMK A01 T01840162  RH  087%=      5-min Rain = 0
KME1 251017Z 20008KT 18/16 A2993 RMK A01 T01830162  RH  088%=      5-min Rain = 0
KME1 251018Z 19007KT 18/16 A2993 RMK A01 T01830162  RH  088%=      5-min Rain = 0
KME1 251019Z 19008KT 18/16 A2993 RMK A01 T01820162  RH  088%=      5-min Rain = 0
KME1 251020Z 20009KT 18/16 A2993 RMK A01 T01820162  RH  088%=      5-min Rain = 0
KME1 251021Z 20008KT 18/16 A2993 RMK A01 T01820161  RH  088%=      5-min Rain = 0
KME1 251022Z 20011KT 18/16 A2993 RMK A01 T01820161  RH  087%=      5-min Rain = 0
KME1 251023Z 20011KT 18/16 A2993 RMK A01 T01820161  RH  087%=      5-min Rain = 0
KME1 251024Z 21009KT 18/16 A2993 RMK A01 T01830160  RH  087%=      5-min Rain = 0
KME1 251025Z 20008KT 18/16 A2993 RMK A01 T01830161  RH  087%=      5-min Rain = 0
KME1 251026Z 20009KT 18/16 A2993 RMK A01 T01830161  RH  087%=      5-min Rain = 0
KME1 251027Z 20009KT 18/16 A2993 RMK A01 T01830160  RH  087%=      5-min Rain = 0
KME1 251028Z 20008KT 18/16 A2993 RMK A01 T01820159  RH  086%=      5-min Rain = 0
KME1 251029Z 20009KT 18/16 A2993 RMK A01 T01820159  RH  086%=      5-min Rain = 0
KME1 251030Z 20007KT 18/16 A2993 RMK A01 T01820159  RH  086%=      5-min Rain = 0
KME1 251031Z 21008KT 18/16 A2993 RMK A01 T01820160  RH  087%=      5-min Rain = 0
KME1 251032Z 20008KT 18/16 A2993 RMK A01 T01820160  RH  087%=      5-min Rain = 0
KME1 251033Z 20011KT 18/16 A2993 RMK A01 T01810160  RH  087%=      5-min Rain = 0
KME1 251034Z 20009KT 18/16 A2993 RMK A01 T01810160  RH  087%=      5-min Rain = 0
KME1 251035Z 20010KT 18/16 A2993 RMK A01 T01810160  RH  088%=      5-min Rain = 0
KME1 251036Z 21010G15KT 18/16 A2993 RMK A01 T01820161  RH  087%=      5-min Rain = 0
KME1 251037Z 20011G16KT 18/16 A2993 RMK A01 T01830161  RH  087%=      5-min Rain = 0
KME1 251038Z 20010KT 18/16 A2993 RMK A01 T01840161  RH  087%=      5-min Rain = 0
KME1 251039Z 20009KT 18/16 A2993 RMK A01 T01840161  RH  086%=      5-min Rain = 0
KME1 251040Z 20011KT 18/16 A2993 RMK A01 T01840161  RH  087%=      5-min Rain = 0
KME1 251041Z 20010KT 18/16 A2993 RMK A01 T01840162  RH  087%=      5-min Rain = 0
KME1 251042Z 20009KT 18/16 A2993 RMK A01 T01840162  RH  087%=      5-min Rain = 0
KME1 251043Z 21007KT 18/16 A2993 RMK A01 T01840162  RH  087%=      5-min Rain = 0
KME1 251044Z 20008KT 18/16 A2993 RMK A01 T01830163  RH  088%=      5-min Rain = 0
KME1 251045Z 20010G16KT 18/16 A2993 RMK A01 T01830163  RH  088%=      5-min Rain = 0
KME1 251046Z 20010KT 18/16 A2994 RMK A01 T01820162  RH  088%=      5-min Rain = 0
KME1 251047Z 21011KT 18/16 A2994 RMK A01 T01830163  RH  088%=      5-min Rain = 0
KME1 251048Z 21011KT 18/16 A2994 RMK A01 T01840163  RH  087%=      5-min Rain = 0
KME1 251049Z 20009KT 18/16 A2994 RMK A01 T01840163  RH  087%=      5-min Rain = 0
KME1 251050Z 20010KT 18/16 A2994 RMK A01 T01840163  RH  087%=      5-min Rain = 0
KME1 251051Z 21011KT 18/16 A2994 RMK A01 T01840163  RH  088%=      5-min Rain = 0
KME1 251052Z 21008KT 18/16 A2994 RMK A01 T01840164  RH  088%=      5-min Rain = 0
KME1 251053Z 21008KT 18/16 A2994 RMK A01 T01840164  RH  088%=      5-min Rain = 0
KME1 251054Z 21009KT 18/16 A2994 RMK A01 T01840164  RH  088%=      5-min Rain = 0
KME1 251055Z 21010KT 18/17 A2994 RMK A01 T01840165  RH  089%=      5-min Rain = 0
KME1 251056Z 20008KT 18/16 A2994 RMK A01 T01840164  RH  088%=      5-min Rain = 0
KME1 251057Z 21010KT 18/16 A2994 RMK A01 T01840164  RH  088%=      5-min Rain = 0
KME1 251058Z 21010KT 18/16 A2994 RMK A01 T01840164  RH  088%=      5-min Rain = 0
KME1 251059Z 21009KT 19/16 A2994 RMK A01 T01850164  RH  088%=      5-min Rain = 0
KME1 251100Z 21009KT 19/16 A2994 RMK A01 T01850164  RH  088%=      5-min Rain = 0
KME1 251101Z 22009KT 19/16 A2994 RMK A01 T01850164  RH  088%=      5-min Rain = 0
KME1 251102Z 21008G13KT 19/16 A2994 RMK A01 T01850164  RH  088%=      5-min Rain = 0
KME1 251103Z 21010G15KT 19/16 A2994 RMK A01 T01850164  RH  088%=      5-min Rain = 0
KME1 251104Z 21008KT 19/16 A2994 RMK A01 T01850164  RH  087%=      5-min Rain = 0
KME1 251105Z 21009KT 19/16 A2994 RMK A01 T01850164  RH  087%=      5-min Rain = 0
KME1 251106Z 21008KT 19/16 A2994 RMK A01 T01850164  RH  087%=      5-min Rain = 0
KME1 251107Z 21008KT 19/16 A2994 RMK A01 T01850164  RH  088%=      5-min Rain = 0
KME1 251108Z 22009KT 19/17 A2994 RMK A01 T01850165  RH  088%=      5-min Rain = 0
KME1 251109Z 22009KT 18/16 A2994 RMK A01 T01840164  RH  088%=      5-min Rain = 0
KME1 251110Z 22011KT 18/16 A2994 RMK A01 T01840164  RH  088%=      5-min Rain = 0
KME1 251111Z 21011KT 18/16 A2994 RMK A01 T01840164  RH  088%=      5-min Rain = 0
KME1 251112Z 22010KT 19/16 A2994 RMK A01 T01850163  RH  087%=      5-min Rain = 0
KME1 251113Z 21010KT 19/16 A2994 RMK A01 T01850163  RH  087%=      5-min Rain = 0
KME1 251114Z 22011KT 19/16 A2994 RMK A01 T01860162  RH  086%=      5-min Rain = 0
KME1 251115Z 21012KT 19/16 A2994 RMK A01 T01860162  RH  086%=      5-min Rain = 0
KME1 251116Z 22011KT 19/16 A2994 RMK A01 T01860161  RH  085%=      5-min Rain = 0
KME1 251117Z 21010KT 19/16 A2994 RMK A01 T01870161  RH  085%=      5-min Rain = 0
KME1 251118Z 21008G14KT 19/16 A2995 RMK A01 T01870161  RH  085%=      5-min Rain = 0
KME1 251119Z 21010KT 19/16 A2995 RMK A01 T01860161  RH  085%=      5-min Rain = 0
KME1 251120Z 21010KT 19/16 A2995 RMK A01 T01870161  RH  085%=      5-min Rain = 0
KME1 251121Z 21010G15KT 19/16 A2995 RMK A01 T01870160  RH  085%=      5-min Rain = 0
KME1 251122Z 20011KT 19/16 A2995 RMK A01 T01870160  RH  084%=      5-min Rain = 0
KME1 251123Z 21009KT 19/16 A2995 RMK A01 T01870159  RH  084%=      5-min Rain = 0
KME1 251124Z 21011KT 19/16 A2995 RMK A01 T01870160  RH  084%=      5-min Rain = 0
KME1 251125Z 21010KT 19/16 A2995 RMK A01 T01870159  RH  084%=      5-min Rain = 0
KME1 251126Z 21007G13KT 19/16 A2995 RMK A01 T01870158  RH  083%=      5-min Rain = 0
KME1 251127Z 22010KT 19/16 A2995 RMK A01 T01870158  RH  083%=      5-min Rain = 0
KME1 251128Z 22008KT 19/16 A2995 RMK A01 T01870158  RH  083%=      5-min Rain = 0
KME1 251129Z 21009KT 19/16 A2995 RMK A01 T01870158  RH  083%=      5-min Rain = 0
KME1 251130Z 22009KT 19/16 A2995 RMK A01 T01870157  RH  083%=      5-min Rain = 0
KME1 251131Z 22010G15KT 19/16 A2995 RMK A01 T01870157  RH  082%=      5-min Rain = 0
KME1 251132Z 21011KT 19/16 A2995 RMK A01 T01870156  RH  082%=      5-min Rain = 0
KME1 251133Z 22011KT 19/16 A2995 RMK A01 T01880155  RH  081%=      5-min Rain = 0
KME1 251134Z 21011KT 19/16 A2995 RMK A01 T01880155  RH  081%=      5-min Rain = 0
KME1 251135Z 22012KT 19/16 A2995 RMK A01 T01880155  RH  081%=      5-min Rain = 0
KME1 251136Z 22012KT 19/15 A2995 RMK A01 T01890154  RH  080%=      5-min Rain = 0
KME1 251137Z 22012KT 19/15 A2995 RMK A01 T01890154  RH  080%=      5-min Rain = 0
KME1 251138Z 22011KT 19/15 A2995 RMK A01 T01900154  RH  080%=      5-min Rain = 0
KME1 251139Z 22011KT 19/15 A2995 RMK A01 T01900154  RH  080%=      5-min Rain = 0
KME1 251140Z 22012KT 19/15 A2995 RMK A01 T01900154  RH  080%=      5-min Rain = 0
KME1 251141Z 22010KT 19/15 A2995 RMK A01 T01900154  RH  080%=      5-min Rain = 0
KME1 251142Z 21010KT 19/15 A2995 RMK A01 T01890154  RH  080%=      5-min Rain = 0
KME1 251143Z 22012KT 19/15 A2995 RMK A01 T01890154  RH  080%=      5-min Rain = 0
KME1 251144Z 21010KT 19/15 A2995 RMK A01 T01890153  RH  080%=      5-min Rain = 0
KME1 251145Z 22010KT 19/15 A2995 RMK A01 T01890153  RH  080%=      5-min Rain = 0
KME1 251146Z 21010KT 19/15 A2995 RMK A01 T01890153  RH  080%=      5-min Rain = 0
KME1 251147Z 21012KT 19/15 A2995 RMK A01 T01880153  RH  080%=      5-min Rain = 0
KME1 251148Z 22009G14KT 19/15 A2995 RMK A01 T01880152  RH  079%=      5-min Rain = 0
KME1 251149Z 22011G16KT 19/15 A2995 RMK A01 T01890153  RH  079%=      5-min Rain = 0
KME1 251150Z 21012KT 19/15 A2995 RMK A01 T01890152  RH  079%=      5-min Rain = 0
KME1 251151Z 22012KT 19/15 A2995 RMK A01 T01890153  RH  079%=      5-min Rain = 0
KME1 251152Z 21013KT 19/15 A2995 RMK A01 T01890152  RH  079%=      5-min Rain = 0
KME1 251153Z 22012KT 19/15 A2995 RMK A01 T01900152  RH  079%=      5-min Rain = 0
KME1 251154Z 21013KT 19/15 A2995 RMK A01 T01900152  RH  079%=      5-min Rain = 0
KME1 251155Z 22012KT 19/15 A2995 RMK A01 T01900152  RH  078%=      5-min Rain = 0
KME1 251156Z 21011KT 19/15 A2995 RMK A01 T01910153  RH  079%=      5-min Rain = 0
KME1 251157Z 22011KT 19/15 A2995 RMK A01 T01910152  RH  078%=      5-min Rain = 0
KME1 251158Z 22010KT 19/15 A2995 RMK A01 T01910152  RH  078%=      5-min Rain = 0
KME1 251159Z 22012G17KT 19/15 A2995 RMK A01 T01910152  RH  078%=      5-min Rain = 0
KME1 251200Z 22009KT 19/15 A2995 RMK A01 T01910152  RH  078%=      5-min Rain = 0
KME1 251201Z 22010KT 19/15 A2995 RMK A01 T01910152  RH  078%=      5-min Rain = 0
KME1 251202Z 22010KT 19/15 A2995 RMK A01 T01910153  RH  079%=      5-min Rain = 0
KME1 251203Z 22012KT 19/15 A2995 RMK A01 T01910152  RH  078%=      5-min Rain = 0
KME1 251204Z 22012KT 19/15 A2995 RMK A01 T01910152  RH  078%=      5-min Rain = 0
KME1 251205Z 22011KT 19/15 A2995 RMK A01 T01910152  RH  078%=      5-min Rain = 0
KME1 251206Z 22011KT 19/15 A2995 RMK A01 T01910152  RH  078%=      5-min Rain = 0
KME1 251207Z 23010KT 19/15 A2995 RMK A01 T01910151  RH  078%=      5-min Rain = 0
KME1 251208Z 22008KT 19/15 A2995 RMK A01 T01920152  RH  078%=      5-min Rain = 0
KME1 251209Z 21011KT 19/15 A2995 RMK A01 T01920151  RH  077%=      5-min Rain = 0
KME1 251210Z 23011KT 19/15 A2995 RMK A01 T01930150  RH  076%=      5-min Rain = 0
KME1 251211Z 23011KT 19/15 A2995 RMK A01 T01930150  RH  076%=      5-min Rain = 0
KME1 251212Z 22011G16KT 19/15 A2995 RMK A01 T01940151  RH  076%=      5-min Rain = 0
KME1 251213Z 22011KT 19/15 A2995 RMK A01 T01940150  RH  076%=      5-min Rain = 0
KME1 251214Z 23010KT 19/15 A2995 RMK A01 T01940150  RH  076%=      5-min Rain = 0
KME1 251215Z 23011KT 20/15 A2995 RMK A01 T01950150  RH  075%=      5-min Rain = 0
KME1 251216Z 23010KT 20/15 A2995 RMK A01 T01950150  RH  075%=      5-min Rain = 0
KME1 251217Z 22011KT 20/15 A2995 RMK A01 T01950150  RH  075%=      5-min Rain = 0
KME1 251218Z 23011KT 20/15 A2995 RMK A01 T01950151  RH  075%=      5-min Rain = 0
KME1 251219Z 22010KT 20/15 A2995 RMK A01 T01960150  RH  075%=      5-min Rain = 0
KME1 251220Z 22010KT 20/15 A2996 RMK A01 T01960151  RH  075%=      5-min Rain = 0
KME1 251221Z 22010KT 20/15 A2996 RMK A01 T01960150  RH  075%=      5-min Rain = 0
KME1 251222Z 21012KT 20/15 A2996 RMK A01 T01960150  RH  074%=      5-min Rain = 0
KME1 251223Z 22010KT 20/15 A2996 RMK A01 T01970150  RH  074%=      5-min Rain = 0
KME1 251224Z 22009KT 20/15 A2996 RMK A01 T01970151  RH  075%=      5-min Rain = 0
KME1 251225Z 22009KT 20/15 A2996 RMK A01 T01970150  RH  074%=      5-min Rain = 0
KME1 251226Z 22011KT 20/15 A2996 RMK A01 T01970149  RH  074%=      5-min Rain = 0
KME1 251227Z 22009KT 20/15 A2996 RMK A01 T01980150  RH  074%=      5-min Rain = 0
KME1 251228Z 22010KT 20/15 A2996 RMK A01 T01980151  RH  074%=      5-min Rain = 0
KME1 251229Z 23009KT 20/15 A2996 RMK A01 T01980150  RH  074%=      5-min Rain = 0
KME1 251230Z 23009KT 20/15 A2996 RMK A01 T01980149  RH  073%=      5-min Rain = 0
KME1 251231Z 22007KT 20/15 A2996 RMK A01 T01990150  RH  073%=      5-min Rain = 0
KME1 251232Z 22010KT 20/15 A2996 RMK A01 T01990151  RH  073%=      5-min Rain = 0
KME1 251233Z 23010G16KT 20/15 A2996 RMK A01 T02000150  RH  073%=      5-min Rain = 0
KME1 251234Z 22011KT 20/15 A2996 RMK A01 T02000150  RH  073%=      5-min Rain = 0
KME1 251235Z 22010KT 20/15 A2996 RMK A01 T02000149  RH  073%=      5-min Rain = 0
KME1 251236Z 23009KT 20/15 A2996 RMK A01 T02000150  RH  072%=      5-min Rain = 0
KME1 251237Z 22008KT 20/15 A2996 RMK A01 T02010148  RH  072%=      5-min Rain = 0
KME1 251238Z 22010KT 20/15 A2996 RMK A01 T02020150  RH  072%=      5-min Rain = 0
KME1 251239Z 21008KT 20/15 A2996 RMK A01 T02020150  RH  072%=      5-min Rain = 0
KME1 251240Z 22007KT 20/15 A2996 RMK A01 T02020150  RH  072%=      5-min Rain = 0
KME1 251241Z 22009KT 20/15 A2996 RMK A01 T02020150  RH  072%=      5-min Rain = 0
KME1 251242Z 22009KT 20/15 A2996 RMK A01 T02030150  RH  072%=      5-min Rain = 0
KME1 251243Z 21009KT 20/15 A2996 RMK A01 T02030149  RH  071%=      5-min Rain = 0
KME1 251244Z 22009KT 20/15 A2996 RMK A01 T02030150  RH  071%=      5-min Rain = 0
KME1 251245Z 22009KT 20/15 A2996 RMK A01 T02040149  RH  071%=      5-min Rain = 0
KME1 251246Z 22009KT 20/15 A2996 RMK A01 T02040149  RH  070%=      5-min Rain = 0
KME1 251247Z 22008KT 21/15 A2996 RMK A01 T02050150  RH  071%=      5-min Rain = 0
KME1 251248Z 21010KT 21/15 A2996 RMK A01 T02050149  RH  070%=      5-min Rain = 0
KME1 251249Z 22011KT 21/15 A2996 RMK A01 T02050148  RH  069%=      5-min Rain = 0
KME1 251250Z 22009KT 21/15 A2996 RMK A01 T02060148  RH  069%=      5-min Rain = 0
KME1 251251Z 22008G13KT 21/15 A2996 RMK A01 T02060148  RH  069%=      5-min Rain = 0
KME1 251252Z 22010KT 21/15 A2996 RMK A01 T02070148  RH  069%=      5-min Rain = 0
KME1 251253Z 23007G12KT 21/15 A2996 RMK A01 T02070148  RH  069%=      5-min Rain = 0
KME1 251254Z 22010KT 21/15 A2996 RMK A01 T02070149  RH  069%=      5-min Rain = 0
KME1 251255Z 22012KT 21/15 A2996 RMK A01 T02080148  RH  068%=      5-min Rain = 0
KME1 251256Z 22009KT 21/15 A2996 RMK A01 T02080147  RH  068%=      5-min Rain = 0
KME1 251257Z 22007KT 21/15 A2996 RMK A01 T02090148  RH  068%=      5-min Rain = 0
KME1 251258Z 23008KT 21/15 A2996 RMK A01 T02100147  RH  067%=      5-min Rain = 0
KME1 251259Z 23010KT 21/15 A2996 RMK A01 T02100148  RH  067%=      5-min Rain = 0
KME1 251300Z 22008KT 21/15 A2996 RMK A01 T02110147  RH  067%=      5-min Rain = 0
KME1 251301Z 21009KT 21/15 A2996 RMK A01 T02120147  RH  067%=      5-min Rain = 0
KME1 251302Z 22011KT 21/15 A2996 RMK A01 T02120146  RH  066%=      5-min Rain = 0
KME1 251303Z 21009KT 21/15 A2996 RMK A01 T02130147  RH  066%=      5-min Rain = 0
KME1 251304Z 21007KT 21/15 A2996 RMK A01 T02130150  RH  067%=      5-min Rain = 0
KME1 251305Z 22010KT 21/15 A2996 RMK A01 T02140148  RH  066%=      5-min Rain = 0
KME1 251306Z 22009KT 21/15 A2996 RMK A01 T02140147  RH  065%=      5-min Rain = 0
KME1 251307Z 21007KT 22/15 A2996 RMK A01 T02150149  RH  066%=      5-min Rain = 0
KME1 251308Z 21007KT 22/15 A2996 RMK A01 T02150149  RH  066%=      5-min Rain = 0
KME1 251309Z 21008KT 22/15 A2996 RMK A01 T02150149  RH  066%=      5-min Rain = 0
KME1 251310Z 21007KT 22/15 A2996 RMK A01 T02160149  RH  066%=      5-min Rain = 0
KME1 251311Z 22009KT 22/15 A2996 RMK A01 T02160148  RH  065%=      5-min Rain = 0
KME1 251312Z 21008KT 22/15 A2996 RMK A01 T02170148  RH  065%=      5-min Rain = 0
KME1 251313Z 20005KT 22/15 A2996 RMK A01 T02180150  RH  065%=      5-min Rain = 0
KME1 251314Z 21006KT 22/15 A2996 RMK A01 T02180152  RH  066%=      5-min Rain = 0
KME1 251315Z 22008KT 22/15 A2996 RMK A01 T02190148  RH  064%=      5-min Rain = 0
KME1 251316Z 21007G12KT 22/15 A2996 RMK A01 T02200149  RH  064%=      5-min Rain = 0
KME1 251317Z 22010KT 22/15 A2996 RMK A01 T02210151  RH  065%=      5-min Rain = 0
KME1 251318Z 21007G12KT 22/15 A2996 RMK A01 T02210148  RH  063%=      5-min Rain = 0
KME1 251319Z 21010KT 22/15 A2996 RMK A01 T02220149  RH  063%=      5-min Rain = 0
KME1 251320Z 21008KT 22/15 A2996 RMK A01 T02220149  RH  063%=      5-min Rain = 0
KME1 251321Z 21008KT 22/15 A2996 RMK A01 T02230149  RH  063%=      5-min Rain = 0
KME1 251322Z 21008KT 22/15 A2996 RMK A01 T02230149  RH  063%=      5-min Rain = 0
KME1 251323Z 20008KT 22/15 A2996 RMK A01 T02240151  RH  063%=      5-min Rain = 0
KME1 251324Z 20006KT 23/15 A2996 RMK A01 T02250151  RH  063%=      5-min Rain = 0
KME1 251325Z 21008KT 23/15 A2996 RMK A01 T02250153  RH  064%=      5-min Rain = 0
KME1 251326Z 21005KT 23/16 A2996 RMK A01 T02260155  RH  064%=      5-min Rain = 0
KME1 251327Z 20005KT 23/15 A2996 RMK A01 T02260154  RH  064%=      5-min Rain = 0
KME1 251328Z 20007KT 23/16 A2996 RMK A01 T02270155  RH  064%=      5-min Rain = 0
KME1 251329Z 20008KT 23/15 A2996 RMK A01 T02270154  RH  063%=      5-min Rain = 0
KME1 251330Z 19008KT 23/15 A2996 RMK A01 T02280154  RH  063%=      5-min Rain = 0
KME1 251331Z 20008G13KT 23/15 A2996 RMK A01 T02280154  RH  063%=      5-min Rain = 0
KME1 251332Z 21009KT 23/16 A2996 RMK A01 T02290155  RH  063%=      5-min Rain = 0
KME1 251333Z 20008KT 23/16 A2996 RMK A01 T02290155  RH  063%=      5-min Rain = 0
KME1 251334Z 20010KT 23/16 A2996 RMK A01 T02300155  RH  062%=      5-min Rain = 0
KME1 251335Z 21011KT 23/15 A2996 RMK A01 T02310154  RH  062%=      5-min Rain = 0
KME1 251336Z 19009KT 23/16 A2996 RMK A01 T02310156  RH  063%=      5-min Rain = 0
KME1 251337Z 20007KT 23/16 A2996 RMK A01 T02310156  RH  062%=      5-min Rain = 0
KME1 251338Z 20009KT 23/16 A2996 RMK A01 T02320156  RH  063%=      5-min Rain = 0
KME1 251339Z 20009KT 23/16 A2997 RMK A01 T02320156  RH  062%=      5-min Rain = 0
KME1 251340Z 20007KT 23/16 A2997 RMK A01 T02320158  RH  063%=      5-min Rain = 0
KME1 251341Z 19008KT 23/16 A2997 RMK A01 T02330160  RH  064%=      5-min Rain = 0
KME1 251342Z 20009KT 23/16 A2997 RMK A01 T02330159  RH  063%=      5-min Rain = 0
KME1 251343Z 21009KT 23/16 A2997 RMK A01 T02330157  RH  062%=      5-min Rain = 0
KME1 251344Z 22010KT 23/16 A2997 RMK A01 T02340157  RH  062%=      5-min Rain = 0
KME1 251345Z 20008KT 24/16 A2997 RMK A01 T02350159  RH  062%=      5-min Rain = 0
KME1 251346Z 20010KT 24/16 A2997 RMK A01 T02350158  RH  062%=      5-min Rain = 0
KME1 251347Z 20007KT 24/16 A2997 RMK A01 T02360160  RH  062%=      5-min Rain = 0
KME1 251348Z 20006KT 24/16 A2997 RMK A01 T02360159  RH  062%=      5-min Rain = 0
KME1 251349Z 21007G12KT 24/16 A2997 RMK A01 T02360162  RH  063%=      5-min Rain = 0
KME1 251350Z 21009KT 24/16 A2997 RMK A01 T02370159  RH  062%=      5-min Rain = 0
KME1 251351Z 21009KT 24/16 A2997 RMK A01 T02380158  RH  061%=      5-min Rain = 0
KME1 251352Z 21007KT 24/16 A2997 RMK A01 T02380162  RH  062%=      5-min Rain = 0
KME1 251353Z 21010KT 24/16 A2997 RMK A01 T02390160  RH  061%=      5-min Rain = 0
KME1 251354Z 21010KT 24/16 A2997 RMK A01 T02390159  RH  061%=      5-min Rain = 0
KME1 251355Z 20006KT 24/16 A2997 RMK A01 T02390162  RH  062%=      5-min Rain = 0
KME1 251356Z 20008KT 24/16 A2997 RMK A01 T02400163  RH  062%=      5-min Rain = 0
KME1 251357Z 20008KT 24/16 A2997 RMK A01 T02410160  RH  061%=      5-min Rain = 0
KME1 251358Z 20010G16KT 24/16 A2997 RMK A01 T02410160  RH  061%=      5-min Rain = 0
KME1 251359Z 21014KT 24/16 A2997 RMK A01 T02410158  RH  060%=      5-min Rain = 0
KME1 251400Z 21013KT 24/16 A2997 RMK A01 T02410158  RH  060%=      5-min Rain = 0
KME1 251401Z 20007KT 24/16 A2997 RMK A01 T02410156  RH  059%=      5-min Rain = 0
KME1 251402Z 20010KT 24/16 A2997 RMK A01 T02410159  RH  060%=      5-min Rain = 0
KME1 251403Z 21012KT 24/16 A2997 RMK A01 T02410158  RH  059%=      5-min Rain = 0
KME1 251404Z 21009G15KT 24/16 A2997 RMK A01 T02420159  RH  060%=      5-min Rain = 0
KME1 251405Z 21008KT 24/16 A2997 RMK A01 T02420160  RH  060%=      5-min Rain = 0
KME1 251406Z 21007KT 24/16 A2997 RMK A01 T02430161  RH  060%=      5-min Rain = 0
KME1 251407Z 21010G15KT 24/16 A2998 RMK A01 T02440163  RH  061%=      5-min Rain = 0
KME1 251408Z 21010KT 25/16 A2998 RMK A01 T02450159  RH  059%=      5-min Rain = 0
KME1 251409Z 22011KT 25/16 A2998 RMK A01 T02450160  RH  059%=      5-min Rain = 0
KME1 251410Z 22009KT 25/16 A2998 RMK A01 T02450159  RH  059%=      5-min Rain = 0
KME1 251411Z 22007KT 25/16 A2998 RMK A01 T02450161  RH  059%=      5-min Rain = 0
KME1 251412Z 21005KT 25/16 A2998 RMK A01 T02460160  RH  059%=      5-min Rain = 0
KME1 251413Z 18003KT 25/16 A2998 RMK A01 T02470161  RH  059%=      5-min Rain = 0
KME1 251414Z 20006KT 25/17 A2998 RMK A01 T02470165  RH  060%=      5-min Rain = 0
KME1 251415Z 20007KT 25/16 A2999 RMK A01 T02480162  RH  059%=      5-min Rain = 0
KME1 251416Z 19008KT 25/16 A2999 RMK A01 T02480162  RH  059%=      5-min Rain = 0
KME1 251417Z 16005KT 25/16 A2999 RMK A01 T02480164  RH  059%=      5-min Rain = 0
KME1 251418Z 11004KT 25/16 A30 RMK A01 T02480160  RH  058%=      5-min Rain = 0
KME1 251419Z 10005KT 25/17 A30 RMK A01 T02480167  RH  061%=      5-min Rain = 0
KME1 251420Z 14004KT 25/17 A30 RMK A01 T02490171  RH  062%=      5-min Rain = 0
KME1 251421Z 13006KT 25/17 A3001 RMK A01 T02500169  RH  061%=      5-min Rain = 0
KME1 251422Z 11005KT 25/16 A3001 RMK A01 T02510164  RH  059%=      5-min Rain = 0
KME1 251423Z 09006KT 25/17 A3001 RMK A01 T02510166  RH  059%=      5-min Rain = 0
KME1 251424Z 11006KT 25/17 A3001 RMK A01 T02510168  RH  060%=      5-min Rain = 0
KME1 251425Z 10005KT 25/17 A3001 RMK A01 T02510171  RH  061%=      5-min Rain = 0
KME1 251426Z 10006KT 25/17 A3001 RMK A01 T02510173  RH  062%=      5-min Rain = 0
KME1 251427Z 11010KT 25/17 A3002 RMK A01 T02520169  RH  060%=      5-min Rain = 0
KME1 251428Z 11008KT 25/17 A3002 RMK A01 T02510167  RH  059%=      5-min Rain = 0
KME1 251429Z 13007KT 25/17 A3002 RMK A01 T02500168  RH  060%=      5-min Rain = 0
KME1 251430Z 15009KT 25/17 A3002 RMK A01 T02500167  RH  060%=      5-min Rain = 0
KME1 251431Z 14007KT 25/17 A3002 RMK A01 T02500166  RH  060%=      5-min Rain = 0
KME1 251432Z 15007KT 25/17 A3002 RMK A01 T02500170  RH  061%=      5-min Rain = 0
KME1 251433Z 16008KT 25/17 A3002 RMK A01 T02510170  RH  061%=      5-min Rain = 0
KME1 251434Z 17009KT 25/17 A3002 RMK A01 T02520171  RH  061%=      5-min Rain = 0
KME1 251435Z 16008KT 25/17 A3002 RMK A01 T02520168  RH  060%=      5-min Rain = 0
KME1 251436Z 15008KT 25/16 A3002 RMK A01 T02520164  RH  058%=      5-min Rain = 0
KME1 251437Z 15005KT 25/17 A3002 RMK A01 T02520169  RH  060%=      5-min Rain = 0
KME1 251438Z 17007KT 25/18 A3002 RMK A01 T02530176  RH  062%=      5-min Rain = 0
KME1 251439Z 16009KT 25/17 A3002 RMK A01 T02540169  RH  059%=      5-min Rain = 0
KME1 251440Z 17007KT 25/17 A3002 RMK A01 T02540165  RH  058%=      5-min Rain = 0
KME1 251441Z 17006KT 25/17 A3002 RMK A01 T02540169  RH  059%=      5-min Rain = 0
KME1 251442Z 18007KT 26/17 A3002 RMK A01 T02550172  RH  060%=      5-min Rain = 0
KME1 251443Z 17005KT 26/17 A3002 RMK A01 T02550170  RH  059%=      5-min Rain = 0
KME1 251444Z 17006KT 26/17 A3002 RMK A01 T02550172  RH  060%=      5-min Rain = 0
KME1 251445Z 16003KT 26/17 A3002 RMK A01 T02560173  RH  060%=      5-min Rain = 0
KME1 251446Z 14005KT 26/17 A3002 RMK A01 T02580174  RH  060%=      5-min Rain = 0
KME1 251447Z 16004KT 26/17 A3002 RMK A01 T02590171  RH  058%=      5-min Rain = 0
KME1 251448Z 18008KT 26/17 A3002 RMK A01 T02600169  RH  057%=      5-min Rain = 0
KME1 251449Z 16005KT 26/17 A3002 RMK A01 T02600172  RH  058%=      5-min Rain = 0
KME1 251450Z 15005KT 26/17 A3002 RMK A01 T02600171  RH  058%=      5-min Rain = 0
KME1 251451Z 15004KT 26/17 A3002 RMK A01 T02610170  RH  057%=      5-min Rain = 0
KME1 251452Z 16008KT 26/17 A3002 RMK A01 T02610170  RH  057%=      5-min Rain = 0
KME1 251453Z 17007KT 26/17 A3002 RMK A01 T02620168  RH  056%=      5-min Rain = 0
KME1 251454Z 17008KT 26/17 A3002 RMK A01 T02620172  RH  058%=      5-min Rain = 0
KME1 251455Z 18008KT 26/17 A3002 RMK A01 T02620173  RH  058%=      5-min Rain = 0
KME1 251456Z 19007KT 26/17 A3002 RMK A01 T02610172  RH  058%=      5-min Rain = 0
KME1 251457Z 20006KT 26/17 A3002 RMK A01 T02610172  RH  058%=      5-min Rain = 0
KME1 251458Z 17005KT 26/18 A3002 RMK A01 T02610176  RH  060%=      5-min Rain = 0
KME1 251459Z 18006KT 26/18 A3002 RMK A01 T02620177  RH  060%=      5-min Rain = 0
KME1 251500Z 17004KT 26/17 A3002 RMK A01 T02620170  RH  057%=      5-min Rain = 0
KME1 251501Z 21005KT 26/18 A3002 RMK A01 T02620179  RH  060%=      5-min Rain = 0
KME1 251502Z 21006KT 26/17 A3002 RMK A01 T02630173  RH  058%=      5-min Rain = 0
KME1 251503Z 20004KT 26/17 A3002 RMK A01 T02630172  RH  057%=      5-min Rain = 0
KME1 251504Z 18005KT 26/18 A3002 RMK A01 T02640178  RH  059%=      5-min Rain = 0
KME1 251505Z 17005KT 26/18 A3002 RMK A01 T02640181  RH  060%=      5-min Rain = 0
KME1 251506Z 19003KT 27/18 A3002 RMK A01 T02650181  RH  060%=      5-min Rain = 0
KME1 251507Z 17007KT 27/18 A3002 RMK A01 T02660178  RH  059%=      5-min Rain = 0
KME1 251508Z 16007KT 27/18 A3002 RMK A01 T02660178  RH  058%=      5-min Rain = 0
KME1 251509Z 16008KT 27/17 A3002 RMK A01 T02660174  RH  057%=      5-min Rain = 0
KME1 251510Z 17010KT 27/18 A3002 RMK A01 T02660175  RH  058%=      5-min Rain = 0
KME1 251511Z 17009KT 27/17 A3002 RMK A01 T02650173  RH  057%=      5-min Rain = 0
KME1 251512Z 16010KT 27/17 A3002 RMK A01 T02650173  RH  057%=      5-min Rain = 0
KME1 251513Z 16010KT 26/17 A3002 RMK A01 T02640173  RH  057%=      5-min Rain = 0
KME1 251514Z 16008KT 26/17 A3002 RMK A01 T02640174  RH  058%=      5-min Rain = 0
KME1 251515Z 16008KT 26/18 A3002 RMK A01 T02640175  RH  058%=      5-min Rain = 0
KME1 251516Z 17009KT 26/18 A3002 RMK A01 T02640175  RH  058%=      5-min Rain = 0
KME1 251517Z 16010KT 26/18 A3002 RMK A01 T02640177  RH  059%=      5-min Rain = 0
KME1 251518Z 15009KT 26/17 A3002 RMK A01 T02640173  RH  058%=      5-min Rain = 0
KME1 251519Z 15008KT 26/17 A3002 RMK A01 T02640173  RH  057%=      5-min Rain = 0
KME1 251520Z 16010KT 26/18 A3002 RMK A01 T02640175  RH  058%=      5-min Rain = 0
KME1 251521Z 15008KT 26/18 A3002 RMK A01 T02640178  RH  059%=      5-min Rain = 0
KME1 251522Z 16009KT 27/18 A3003 RMK A01 T02650178  RH  059%=      5-min Rain = 0
KME1 251523Z 17009KT 27/18 A3003 RMK A01 T02650177  RH  058%=      5-min Rain = 0
KME1 251524Z 18009KT 27/18 A3003 RMK A01 T02650176  RH  058%=      5-min Rain = 0
KME1 251525Z 19010KT 27/18 A3002 RMK A01 T02650178  RH  059%=      5-min Rain = 0
KME1 251526Z 19006KT 27/18 A3002 RMK A01 T02650179  RH  059%=      5-min Rain = 0
KME1 251527Z 19010KT 26/18 A3002 RMK A01 T02640180  RH  060%=      5-min Rain = 0
KME1 251528Z 18009KT 27/18 A3003 RMK A01 T02650176  RH  058%=      5-min Rain = 0
KME1 251529Z 18007KT 26/18 A3003 RMK A01 T02640176  RH  059%=      5-min Rain = 0
KME1 251530Z 19008KT 26/17 A3003 RMK A01 T02630174  RH  058%=      5-min Rain = 0
KME1 251531Z 18006KT 26/18 A3003 RMK A01 T02630177  RH  059%=      5-min Rain = 0
KME1 251532Z 14004KT 26/18 A3003 RMK A01 T02630180  RH  060%=      5-min Rain = 0
KME1 251533Z 13007G14KT 27/18 A3003 RMK A01 T02650182  RH  060%=      5-min Rain = 0
KME1 251534Z 15008G13KT 27/18 A3003 RMK A01 T02660183  RH  060%=      5-min Rain = 0
KME1 251535Z 16009KT 27/18 A3003 RMK A01 T02680181  RH  059%=      5-min Rain = 0
KME1 251536Z 16007KT 27/18 A3003 RMK A01 T02680178  RH  058%=      5-min Rain = 0
KME1 251537Z 16005KT 27/18 A3003 RMK A01 T02670177  RH  058%=      5-min Rain = 0
KME1 251538Z 15004KT 27/18 A3003 RMK A01 T02660180  RH  059%=      5-min Rain = 0
KME1 251539Z 14006KT 27/18 A3003 RMK A01 T02670178  RH  058%=      5-min Rain = 0
KME1 251540Z 14009KT 27/18 A3003 RMK A01 T02670176  RH  057%=      5-min Rain = 0
KME1 251541Z 14010KT 27/18 A3003 RMK A01 T02670179  RH  058%=      5-min Rain = 0
KME1 251542Z 15009KT 27/18 A3003 RMK A01 T02670177  RH  058%=      5-min Rain = 0
KME1 251543Z 16007KT 27/18 A3003 RMK A01 T02660180  RH  059%=      5-min Rain = 0
KME1 251544Z 15010KT 27/18 A3003 RMK A01 T02660179  RH  059%=      5-min Rain = 0
KME1 251545Z 14010KT 27/18 A3003 RMK A01 T02660176  RH  058%=      5-min Rain = 0
KME1 251546Z 14008KT 27/18 A3003 RMK A01 T02650175  RH  058%=      5-min Rain = 0
KME1 251547Z 14009KT 26/18 A3003 RMK A01 T02640176  RH  058%=      5-min Rain = 0
KME1 251548Z 15006KT 27/18 A3003 RMK A01 T02650177  RH  059%=      5-min Rain = 0
KME1 251549Z 17009KT 27/18 A3003 RMK A01 T02650179  RH  059%=      5-min Rain = 0
KME1 251550Z 17009KT 27/18 A3003 RMK A01 T02660178  RH  059%=      5-min Rain = 0
KME1 251551Z 16006KT 27/17 A3003 RMK A01 T02650173  RH  057%=      5-min Rain = 0
KME1 251552Z 17008KT 26/18 A3003 RMK A01 T02640179  RH  060%=      5-min Rain = 0
KME1 251553Z 16009KT 27/18 A3003 RMK A01 T02650180  RH  060%=      5-min Rain = 0
KME1 251554Z 17009KT 27/18 A3003 RMK A01 T02650177  RH  058%=      5-min Rain = 0
KME1 251555Z 18007KT 27/18 A3004 RMK A01 T02650178  RH  059%=      5-min Rain = 0
KME1 251556Z 18004KT 27/18 A3004 RMK A01 T02650179  RH  059%=      5-min Rain = 0
KME1 251557Z 18006KT 27/18 A3004 RMK A01 T02650183  RH  061%=      5-min Rain = 0
KME1 251558Z 16009KT 27/18 A3004 RMK A01 T02660180  RH  060%=      5-min Rain = 0
KME1 251559Z 16011KT 27/18 A3004 RMK A01 T02660178  RH  058%=      5-min Rain = 0
KME1 251600Z 16008KT 27/18 A3004 RMK A01 T02660180  RH  059%=      5-min Rain = 0
KME1 251601Z 16006KT 27/18 A3004 RMK A01 T02660180  RH  059%=      5-min Rain = 0
KME1 251602Z 16009KT 27/18 A3004 RMK A01 T02670180  RH  059%=      5-min Rain = 0
KME1 251603Z 16009KT 27/18 A3004 RMK A01 T02670177  RH  058%=      5-min Rain = 0
KME1 251604Z 15010KT 27/18 A3004 RMK A01 T02670182  RH  059%=      5-min Rain = 0
KME1 251605Z 16010KT 27/18 A3004 RMK A01 T02680180  RH  059%=      5-min Rain = 0
KME1 251606Z 16011KT 27/18 A3004 RMK A01 T02680179  RH  058%=      5-min Rain = 0
KME1 251607Z 16009KT 27/18 A3004 RMK A01 T02680178  RH  058%=      5-min Rain = 0
KME1 251608Z 15009KT 27/18 A3004 RMK A01 T02670181  RH  059%=      5-min Rain = 0
KME1 251609Z 15010KT 27/18 A3004 RMK A01 T02680182  RH  059%=      5-min Rain = 0
KME1 251610Z 14012KT 27/18 A3004 RMK A01 T02680183  RH  059%=      5-min Rain = 0
KME1 251611Z 16011KT 27/18 A3004 RMK A01 T02690178  RH  057%=      5-min Rain = 0
KME1 251612Z 15011KT 27/18 A3004 RMK A01 T02680178  RH  058%=      5-min Rain = 0
KME1 251613Z 15009KT 27/18 A3004 RMK A01 T02670180  RH  059%=      5-min Rain = 0
KME1 251614Z 16009KT 27/18 A3004 RMK A01 T02670178  RH  058%=      5-min Rain = 0
KME1 251615Z 16009KT 27/18 A3004 RMK A01 T02670179  RH  059%=      5-min Rain = 0
KME1 251616Z 14010KT 27/18 A3004 RMK A01 T02670177  RH  058%=      5-min Rain = 0
KME1 251617Z 14010KT 27/18 A3004 RMK A01 T02680178  RH  058%=      5-min Rain = 0
KME1 251618Z 14011KT 27/18 A3004 RMK A01 T02670179  RH  058%=      5-min Rain = 0
KME1 251619Z 15011KT 27/18 A3004 RMK A01 T02670179  RH  058%=      5-min Rain = 0
KME1 251620Z 16010KT 27/18 A3004 RMK A01 T02670177  RH  058%=      5-min Rain = 0
KME1 251621Z 16008KT 27/18 A3004 RMK A01 T02680183  RH  060%=      5-min Rain = 0
KME1 251622Z 15011KT 27/18 A3004 RMK A01 T02690178  RH  058%=      5-min Rain = 0
KME1 251623Z 16012KT 27/18 A3004 RMK A01 T02680180  RH  058%=      5-min Rain = 0
KME1 251624Z 17009KT 27/18 A3004 RMK A01 T02680177  RH  057%=      5-min Rain = 0
KME1 251625Z 13007KT 27/18 A3004 RMK A01 T02680180  RH  059%=      5-min Rain = 0
KME1 251626Z 15006KT 27/18 A3004 RMK A01 T02680180  RH  059%=      5-min Rain = 0
KME1 251627Z 16006KT 27/18 A3004 RMK A01 T02680179  RH  058%=      5-min Rain = 0
KME1 251628Z 15008KT 27/18 A3004 RMK A01 T02690182  RH  059%=      5-min Rain = 0
KME1 251629Z 18010KT 27/18 A3004 RMK A01 T02710184  RH  059%=      5-min Rain = 0
KME1 251630Z 21008KT 27/18 A3004 RMK A01 T02710179  RH  057%=      5-min Rain = 0
KME1 251631Z 20009KT 27/18 A3004 RMK A01 T02710184  RH  059%=      5-min Rain = 0
KME1 251632Z 21008KT 27/18 A3004 RMK A01 T02710181  RH  058%=      5-min Rain = 0
KME1 251633Z 20008KT 27/18 A3004 RMK A01 T02710181  RH  058%=      5-min Rain = 0
KME1 251634Z 18007KT 27/18 A3004 RMK A01 T02710179  RH  057%=      5-min Rain = 0
KME1 251635Z 19004KT 27/18 A3004 RMK A01 T02700182  RH  058%=      5-min Rain = 0
KME1 251636Z 18005KT 27/19 A3004 RMK A01 T02700186  RH  060%=      5-min Rain = 0
KME1 251637Z 18006KT 27/18 A3004 RMK A01 T02710182  RH  058%=      5-min Rain = 0
KME1 251638Z 18007KT 27/19 A3004 RMK A01 T02710185  RH  059%=      5-min Rain = 0
KME1 251639Z 19009KT 27/19 A3004 RMK A01 T02720185  RH  059%=      5-min Rain = 0
KME1 251640Z 18007KT 27/19 A3004 RMK A01 T02720185  RH  059%=      5-min Rain = 0
KME1 251641Z 19005KT 27/18 A3004 RMK A01 T02720184  RH  059%=      5-min Rain = 0
KME1 251642Z 19005KT 27/19 A3004 RMK A01 T02720186  RH  059%=      5-min Rain = 0
KME1 251643Z 15006KT 27/19 A3004 RMK A01 T02730188  RH  060%=      5-min Rain = 0
KME1 251644Z 15008KT 27/19 A3004 RMK A01 T02740187  RH  059%=      5-min Rain = 0
KME1 251645Z 15009KT 27/19 A3004 RMK A01 T02740186  RH  059%=      5-min Rain = 0
KME1 251646Z 16010KT 28/19 A3004 RMK A01 T02750185  RH  058%=      5-min Rain = 0
KME1 251647Z 19009KT 27/18 A3004 RMK A01 T02740181  RH  057%=      5-min Rain = 0
KME1 251648Z 18007KT 27/18 A3004 RMK A01 T02720183  RH  058%=      5-min Rain = 0
KME1 251649Z 16004KT 27/18 A3004 RMK A01 T02720182  RH  058%=      5-min Rain = 0
KME1 251650Z 17004KT 27/18 A3004 RMK A01 T02720182  RH  058%=      5-min Rain = 0
KME1 251651Z 15004KT 27/18 A3004 RMK A01 T02720183  RH  058%=      5-min Rain = 0
KME1 251652Z 13007KT 27/19 A3004 RMK A01 T02730185  RH  059%=      5-min Rain = 0
KME1 251653Z 13008KT 27/19 A3004 RMK A01 T02740187  RH  059%=      5-min Rain = 0
KME1 251654Z 13007KT 28/19 A3004 RMK A01 T02750185  RH  058%=      5-min Rain = 0
KME1 251655Z 13007KT 28/19 A3004 RMK A01 T02750188  RH  059%=      5-min Rain = 0
KME1 251656Z 12007KT 28/19 A3004 RMK A01 T02750190  RH  060%=      5-min Rain = 0
KME1 251657Z 16010KT 28/19 A3004 RMK A01 T02770194  RH  061%=      5-min Rain = 0
KME1 251658Z 17010KT 28/19 A3004 RMK A01 T02780185  RH  057%=      5-min Rain = 0
KME1 251659Z 16008KT 28/19 A3004 RMK A01 T02770189  RH  059%=      5-min Rain = 0
KME1 251700Z 16008KT 28/19 A3004 RMK A01 T02760188  RH  059%=      5-min Rain = 0
KME1 251701Z 19007KT 28/19 A3004 RMK A01 T02760188  RH  059%=      5-min Rain = 0
KME1 251702Z 18007KT 28/19 A3004 RMK A01 T02760188  RH  058%=      5-min Rain = 0
KME1 251703Z 20009KT 28/19 A3004 RMK A01 T02750185  RH  058%=      5-min Rain = 0
KME1 251704Z 19008KT 27/19 A3004 RMK A01 T02740187  RH  059%=      5-min Rain = 0
KME1 251705Z 17009KT 27/19 A3004 RMK A01 T02740188  RH  059%=      5-min Rain = 0
KME1 251706Z 17007KT 28/19 A3004 RMK A01 T02750189  RH  059%=      5-min Rain = 0
KME1 251707Z 16003KT 27/19 A3004 RMK A01 T02740188  RH  059%=      5-min Rain = 0
KME1 251708Z 15005KT 28/19 A3004 RMK A01 T02760193  RH  061%=      5-min Rain = 0
KME1 251709Z 14004KT 28/18 A3004 RMK A01 T02770184  RH  057%=      5-min Rain = 0
KME1 251710Z 14005KT 28/18 A3004 RMK A01 T02770181  RH  056%=      5-min Rain = 0
KME1 251711Z 15009KT 28/19 A3004 RMK A01 T02750186  RH  058%=      5-min Rain = 0
KME1 251712Z 15009KT 28/19 A3004 RMK A01 T02760190  RH  059%=      5-min Rain = 0
KME1 251713Z 17011KT 28/19 A3004 RMK A01 T02770188  RH  058%=      5-min Rain = 0
KME1 251714Z 16010KT 28/19 A3004 RMK A01 T02770188  RH  058%=      5-min Rain = 0
KME1 251715Z 16008KT 28/19 A3004 RMK A01 T02760186  RH  058%=      5-min Rain = 0
KME1 251716Z 14007KT 28/19 A3004 RMK A01 T02750186  RH  058%=      5-min Rain = 0
KME1 251717Z 13006KT 28/19 A3005 RMK A01 T02750189  RH  060%=      5-min Rain = 0
KME1 251718Z 12004KT 28/18 A3005 RMK A01 T02760184  RH  057%=      5-min Rain = 0
KME1 251719Z 17003KT 28/19 A3005 RMK A01 T02760192  RH  060%=      5-min Rain = 0
KME1 251720Z 19007G12KT 28/20 A3005 RMK A01 T02780198  RH  061%=      5-min Rain = 0
KME1 251721Z 18010KT 28/19 A3005 RMK A01 T02800192  RH  059%=      5-min Rain = 0
KME1 251722Z 20008KT 28/19 A3004 RMK A01 T02790189  RH  058%=      5-min Rain = 0
KME1 251723Z 18006KT 28/19 A3004 RMK A01 T02770187  RH  058%=      5-min Rain = 0
KME1 251724Z 14007KT 28/19 A3004 RMK A01 T02770190  RH  059%=      5-min Rain = 0
KME1 251725Z 14005KT 28/19 A3004 RMK A01 T02760189  RH  059%=      5-min Rain = 0
KME1 251726Z 13009KT 28/19 A3004 RMK A01 T02770193  RH  060%=      5-min Rain = 0
KME1 251727Z 13010KT 28/19 A3004 RMK A01 T02780188  RH  058%=      5-min Rain = 0
KME1 251728Z 14008KT 28/19 A3004 RMK A01 T02780190  RH  059%=      5-min Rain = 0
KME1 251729Z 17009KT 28/19 A3005 RMK A01 T02780194  RH  060%=      5-min Rain = 0
KME1 251730Z 21009KT 28/19 A3004 RMK A01 T02790190  RH  058%=      5-min Rain = 0
KME1 251731Z 21007KT 28/19 A3004 RMK A01 T02790186  RH  057%=      5-min Rain = 0
KME1 251732Z 20005KT 28/19 A3004 RMK A01 T02790190  RH  059%=      5-min Rain = 0
KME1 251733Z 19006KT 28/19 A3004 RMK A01 T02790187  RH  057%=      5-min Rain = 0
KME1 251734Z 19009KT 28/19 A3004 RMK A01 T02790192  RH  059%=      5-min Rain = 0
KME1 251735Z 14012KT 28/19 A3004 RMK A01 T02800193  RH  059%=      5-min Rain = 0
KME1 251736Z 17010KT 28/19 A3004 RMK A01 T02810190  RH  058%=      5-min Rain = 0
KME1 251737Z 18011KT 28/19 A3004 RMK A01 T02810189  RH  057%=      5-min Rain = 0
KME1 251738Z 17009KT 28/19 A3004 RMK A01 T02800188  RH  057%=      5-min Rain = 0
KME1 251739Z 17007KT 28/19 A3004 RMK A01 T02790192  RH  059%=      5-min Rain = 0
KME1 251740Z 18008KT 28/19 A3004 RMK A01 T02790191  RH  059%=      5-min Rain = 0
KME1 251741Z 16008KT 28/19 A3004 RMK A01 T02800191  RH  058%=      5-min Rain = 0
KME1 251742Z 17006KT 28/19 A3004 RMK A01 T02810194  RH  059%=      5-min Rain = 0
KME1 251743Z 20006KT 28/19 A3004 RMK A01 T02820193  RH  059%=      5-min Rain = 0
KME1 251744Z 16006KT 28/19 A3004 RMK A01 T02830191  RH  058%=      5-min Rain = 0
KME1 251745Z 17005KT 28/20 A3004 RMK A01 T02830195  RH  059%=      5-min Rain = 0
KME1 251746Z 14007KT 28/19 A3004 RMK A01 T02840193  RH  058%=      5-min Rain = 0
KME1 251747Z 16005G10KT 28/19 A3004 RMK A01 T02840188  RH  056%=      5-min Rain = 0
KME1 251748Z 14004KT 28/20 A3004 RMK A01 T02830197  RH  059%=      5-min Rain = 0
KME1 251749Z 14005KT 28/19 A3004 RMK A01 T02840193  RH  058%=      5-min Rain = 0
KME1 251750Z 17007KT 29/19 A3004 RMK A01 T02850194  RH  058%=      5-min Rain = 0
KME1 251751Z 16011KT 29/20 A3004 RMK A01 T02860196  RH  058%=      5-min Rain = 0
KME1 251752Z 15009KT 29/19 A3004 RMK A01 T02870194  RH  057%=      5-min Rain = 0
KME1 251753Z 15010KT 29/19 A3004 RMK A01 T02860190  RH  056%=      5-min Rain = 0
KME1 251754Z 15007KT 28/19 A3004 RMK A01 T02830187  RH  056%=      5-min Rain = 0
KME1 251755Z 15006KT 28/19 A3003 RMK A01 T02820189  RH  057%=      5-min Rain = 0
KME1 251756Z 15005KT 28/19 A3003 RMK A01 T02820188  RH  057%=      5-min Rain = 0
KME1 251757Z 19008KT 28/19 A3003 RMK A01 T02820194  RH  059%=      5-min Rain = 0
KME1 251758Z 17009KT 28/19 A3003 RMK A01 T02830192  RH  058%=      5-min Rain = 0
KME1 251759Z 17010KT 28/19 A3003 RMK A01 T02840191  RH  057%=      5-min Rain = 0
KME1 251800Z 18008KT 28/19 A3003 RMK A01 T02840194  RH  058%=      5-min Rain = 0
KME1 251801Z 19009KT 28/19 A3003 RMK A01 T02840193  RH  058%=      5-min Rain = 0
KME1 251802Z 19008KT 29/20 A3003 RMK A01 T02850195  RH  058%=      5-min Rain = 0
KME1 251803Z 19008KT 29/20 A3003 RMK A01 T02870201  RH  060%=      5-min Rain = 0
KME1 251804Z 19007KT 29/19 A3003 RMK A01 T02880194  RH  057%=      5-min Rain = 0
KME1 251805Z 19009KT 29/19 A3003 RMK A01 T02870194  RH  057%=      5-min Rain = 0
KME1 251806Z 21008G13KT 29/20 A3003 RMK A01 T02860195  RH  058%=      5-min Rain = 0
KME1 251807Z 19009KT 29/20 A3003 RMK A01 T02860197  RH  059%=      5-min Rain = 0
KME1 251808Z 17007KT 29/20 A3003 RMK A01 T02870197  RH  058%=      5-min Rain = 0
KME1 251809Z 16006KT 29/20 A3003 RMK A01 T02870197  RH  058%=      5-min Rain = 0
KME1 251810Z 19007KT 29/20 A3003 RMK A01 T02880199  RH  059%=      5-min Rain = 0
KME1 251811Z 17008G13KT 29/20 A3003 RMK A01 T02890197  RH  057%=      5-min Rain = 0
KME1 251812Z 16004KT 29/19 A3003 RMK A01 T02890193  RH  056%=      5-min Rain = 0
KME1 251813Z 13003KT 29/19 A3003 RMK A01 T02880193  RH  056%=      5-min Rain = 0
KME1 251814Z 16005KT 29/19 A3003 RMK A01 T02880192  RH  056%=      5-min Rain = 0
KME1 251815Z 17009KT 29/19 A3003 RMK A01 T02890194  RH  057%=      5-min Rain = 0
KME1 251816Z 17007KT 29/19 A3003 RMK A01 T02890194  RH  057%=      5-min Rain = 0
KME1 251817Z 16006KT 29/19 A3003 RMK A01 T02880193  RH  056%=      5-min Rain = 0
KME1 251818Z 17010KT 29/20 A3003 RMK A01 T02880197  RH  058%=      5-min Rain = 0
KME1 251819Z 19007KT 29/20 A3003 RMK A01 T02880196  RH  057%=      5-min Rain = 0
KME1 251820Z 20006KT 29/20 A3003 RMK A01 T02890201  RH  059%=      5-min Rain = 0
KME1 251821Z 18006KT 29/20 A3003 RMK A01 T02910196  RH  057%=      5-min Rain = 0
KME1 251822Z 16009KT 29/20 A3003 RMK A01 T02910196  RH  057%=      5-min Rain = 0
KME1 251823Z 14010KT 29/20 A3003 RMK A01 T02910198  RH  057%=      5-min Rain = 0
KME1 251824Z 14009KT 29/20 A3003 RMK A01 T02910195  RH  056%=      5-min Rain = 0
KME1 251825Z 15008KT 29/20 A3003 RMK A01 T02900195  RH  057%=      5-min Rain = 0
KME1 251826Z 18007KT 29/20 A3003 RMK A01 T02900198  RH  058%=      5-min Rain = 0
KME1 251827Z 17007KT 29/20 A3003 RMK A01 T02900197  RH  057%=      5-min Rain = 0
KME1 251828Z 16011KT 29/19 A3003 RMK A01 T02910194  RH  056%=      5-min Rain = 0
KME1 251829Z 14012KT 29/19 A3003 RMK A01 T02910192  RH  055%=      5-min Rain = 0
KME1 251830Z 13010KT 29/19 A3003 RMK A01 T02900194  RH  056%=      5-min Rain = 0
KME1 251831Z 14007KT 29/20 A3003 RMK A01 T02900195  RH  057%=      5-min Rain = 0
KME1 251832Z 19009KT 29/20 A3003 RMK A01 T02910200  RH  058%=      5-min Rain = 0
KME1 251833Z 19009KT 29/20 A3003 RMK A01 T02920196  RH  056%=      5-min Rain = 0
KME1 251834Z 16010KT 29/20 A3003 RMK A01 T02920198  RH  057%=      5-min Rain = 0
KME1 251835Z 14009KT 29/20 A3003 RMK A01 T02920197  RH  057%=      5-min Rain = 0
KME1 251836Z 13007KT 29/20 A3003 RMK A01 T02920195  RH  056%=      5-min Rain = 0
KME1 251837Z 13009KT 29/20 A3003 RMK A01 T02910195  RH  056%=      5-min Rain = 0
KME1 251838Z 14008KT 29/20 A3003 RMK A01 T02910199  RH  057%=      5-min Rain = 0
KME1 251839Z 15008KT 29/20 A3003 RMK A01 T02930200  RH  057%=      5-min Rain = 0
KME1 251840Z 16006KT 29/20 A3003 RMK A01 T02940199  RH  057%=      5-min Rain = 0
KME1 251841Z 18007KT 30/20 A3003 RMK A01 T02950204  RH  058%=      5-min Rain = 0
KME1 251842Z 18007KT 30/20 A3003 RMK A01 T02960201  RH  057%=      5-min Rain = 0
KME1 251843Z 17005KT 30/20 A3003 RMK A01 T02970201  RH  056%=      5-min Rain = 0
KME1 251844Z 15009KT 30/21 A3003 RMK A01 T02970206  RH  058%=      5-min Rain = 0
KME1 251845Z 15009KT 30/20 A3003 RMK A01 T02980202  RH  056%=      5-min Rain = 0
KME1 251846Z 13008KT 30/20 A3003 RMK A01 T02980200  RH  056%=      5-min Rain = 0
KME1 251847Z 14007KT 30/20 A3003 RMK A01 T02960198  RH  056%=      5-min Rain = 0
KME1 251848Z 14005KT 30/20 A3003 RMK A01 T02950201  RH  057%=      5-min Rain = 0
KME1 251849Z 17007KT 30/20 A3003 RMK A01 T02960200  RH  056%=      5-min Rain = 0
KME1 251850Z 18008KT 30/20 A3003 RMK A01 T02960203  RH  057%=      5-min Rain = 0
KME1 251851Z 18008KT 30/20 A3003 RMK A01 T02970201  RH  057%=      5-min Rain = 0
KME1 251852Z 16006G11KT 30/21 A3003 RMK A01 T02970210  RH  060%=      5-min Rain = 0
KME1 251853Z 15011KT 30/20 A3003 RMK A01 T02990203  RH  057%=      5-min Rain = 0
KME1 251854Z 15008KT 30/20 A3003 RMK A01 T02990198  RH  055%=      5-min Rain = 0
KME1 251855Z 13010KT 30/20 A3003 RMK A01 T02980203  RH  057%=      5-min Rain = 0
KME1 251856Z 14010KT 30/20 A3002 RMK A01 T02980203  RH  057%=      5-min Rain = 0
KME1 251857Z 14008G13KT 30/20 A3002 RMK A01 T02980202  RH  056%=      5-min Rain = 0
KME1 251858Z 14009KT 30/20 A3002 RMK A01 T02980199  RH  055%=      5-min Rain = 0
KME1 251859Z 13007KT 30/20 A3002 RMK A01 T02980200  RH  056%=      5-min Rain = 0
KME1 251900Z 12006KT 30/20 A3002 RMK A01 T02970197  RH  055%=      5-min Rain = 0
KME1 251901Z 12004KT 30/20 A3002 RMK A01 T02960199  RH  056%=      5-min Rain = 0
KME1 251902Z 13004KT 30/20 A3002 RMK A01 T02960204  RH  058%=      5-min Rain = 0
KME1 251903Z 18007KT 30/21 A3002 RMK A01 T02980206  RH  058%=      5-min Rain = 0
KME1 251904Z 16006KT 30/20 A3002 RMK A01 T03000199  RH  055%=      5-min Rain = 0
KME1 251905Z 13011KT 30/20 A3002 RMK A01 T02990202  RH  056%=      5-min Rain = 0
KME1 251906Z 14011KT 30/20 A3002 RMK A01 T02990201  RH  056%=      5-min Rain = 0
KME1 251907Z 14009KT 30/20 A3002 RMK A01 T02980199  RH  055%=      5-min Rain = 0
KME1 251908Z 14007KT 30/20 A3002 RMK A01 T02980203  RH  057%=      5-min Rain = 0
KME1 251909Z 15007KT 30/20 A3002 RMK A01 T02980202  RH  056%=      5-min Rain = 0
KME1 251910Z 15008KT 30/20 A3002 RMK A01 T02980200  RH  055%=      5-min Rain = 0
KME1 251911Z 15008KT 30/20 A3002 RMK A01 T02980203  RH  057%=      5-min Rain = 0
KME1 251912Z 14006KT 30/20 A3002 RMK A01 T02980204  RH  057%=      5-min Rain = 0
KME1 251913Z 14009G16KT 30/21 A3002 RMK A01 T02990209  RH  058%=      5-min Rain = 0
KME1 251914Z 15011G17KT 30/20 A3002 RMK A01 T03010200  RH  055%=      5-min Rain = 0
KME1 251915Z 15010KT 30/20 A3002 RMK A01 T03010202  RH  055%=      5-min Rain = 0
KME1 251916Z 15009KT 30/20 A3002 RMK A01 T03010197  RH  054%=      5-min Rain = 0
KME1 251917Z 14008KT 30/20 A3002 RMK A01 T03000201  RH  055%=      5-min Rain = 0
KME1 251918Z 13007KT 30/20 A3002 RMK A01 T03000198  RH  054%=      5-min Rain = 0
KME1 251919Z 13006KT 30/21 A3002 RMK A01 T03000206  RH  057%=      5-min Rain = 0
KME1 251920Z 14007KT 30/21 A3001 RMK A01 T03020206  RH  056%=      5-min Rain = 0
KME1 251921Z 14006KT 30/21 A3001 RMK A01 T03030207  RH  057%=      5-min Rain = 0
KME1 251922Z 14008G13KT 30/20 A3001 RMK A01 T03040199  RH  054%=      5-min Rain = 0
KME1 251923Z 15009G14KT 30/20 A3001 RMK A01 T03020202  RH  055%=      5-min Rain = 0
KME1 251924Z 14010KT 30/20 A3001 RMK A01 T03020202  RH  055%=      5-min Rain = 0
KME1 251925Z 14008KT 30/20 A3001 RMK A01 T03020200  RH  054%=      5-min Rain = 0
KME1 251926Z 15006KT 30/20 A3001 RMK A01 T03020201  RH  055%=      5-min Rain = 0
KME1 251927Z 15006KT 30/20 A3001 RMK A01 T03020202  RH  055%=      5-min Rain = 0
KME1 251928Z 16008KT 30/20 A3001 RMK A01 T03030202  RH  055%=      5-min Rain = 0
KME1 251929Z 15009KT 30/20 A3001 RMK A01 T03040199  RH  054%=      5-min Rain = 0
KME1 251930Z 14008KT 30/20 A3001 RMK A01 T03030203  RH  055%=      5-min Rain = 0
KME1 251931Z 16007KT 30/20 A3001 RMK A01 T03040203  RH  055%=      5-min Rain = 0
KME1 251932Z 17008KT 30/21 A3001 RMK A01 T03040205  RH  056%=      5-min Rain = 0
KME1 251933Z 17009KT 31/20 A3001 RMK A01 T03050199  RH  053%=      5-min Rain = 0
KME1 251934Z 15007KT 30/20 A3001 RMK A01 T03040202  RH  055%=      5-min Rain = 0
KME1 251935Z 17005KT 30/20 A3001 RMK A01 T03040202  RH  055%=      5-min Rain = 0
KME1 251936Z 15003KT 30/20 A3001 RMK A01 T03040203  RH  055%=      5-min Rain = 0
KME1 251937Z 15004KT 30/20 A3001 RMK A01 T03040201  RH  054%=      5-min Rain = 0
KME1 251938Z 17004KT 31/21 A3001 RMK A01 T03050207  RH  056%=      5-min Rain = 0
KME1 251939Z 17005KT 31/20 A3001 RMK A01 T03060202  RH  054%=      5-min Rain = 0
KME1 251940Z 14007KT 31/20 A3001 RMK A01 T03060203  RH  054%=      5-min Rain = 0
KME1 251941Z 14009KT 31/21 A3001 RMK A01 T03070210  RH  056%=      5-min Rain = 0
KME1 251942Z 13010KT 31/21 A3001 RMK A01 T03090205  RH  054%=      5-min Rain = 0
KME1 251943Z 13008KT 31/20 A3001 RMK A01 T03070202  RH  053%=      5-min Rain = 0
KME1 251944Z 12005KT 31/21 A3001 RMK A01 T03060206  RH  055%=      5-min Rain = 0
KME1 251945Z 15005KT 31/21 A3001 RMK A01 T03070205  RH  055%=      5-min Rain = 0
KME1 251946Z 17008G13KT 31/20 A3001 RMK A01 T03070203  RH  054%=      5-min Rain = 0
KME1 251947Z 18011KT 31/20 A3001 RMK A01 T03070200  RH  053%=      5-min Rain = 0
KME1 251948Z 19009KT 31/20 A3001 RMK A01 T03080201  RH  053%=      5-min Rain = 0
KME1 251949Z 17008KT 31/21 A30 RMK A01 T03070205  RH  054%=      5-min Rain = 0
KME1 251950Z 17011KT 31/21 A30 RMK A01 T03080206  RH  054%=      5-min Rain = 0
KME1 251951Z 16009KT 31/20 A3001 RMK A01 T03080204  RH  054%=      5-min Rain = 0
KME1 251952Z 15007KT 31/21 A30 RMK A01 T03080208  RH  055%=      5-min Rain = 0
KME1 251953Z 14005KT 31/20 A30 RMK A01 T03090204  RH  054%=      5-min Rain = 0
KME1 251954Z 17006G12KT 31/21 A30 RMK A01 T03100209  RH  055%=      5-min Rain = 0
KME1 251955Z 19010KT 31/21 A30 RMK A01 T03100205  RH  054%=      5-min Rain = 0
KME1 251956Z 19007KT 31/20 A30 RMK A01 T03100203  RH  053%=      5-min Rain = 0
KME1 251957Z 20007KT 31/20 A30 RMK A01 T03090203  RH  053%=      5-min Rain = 0
KME1 251958Z 19005KT 31/20 A30 RMK A01 T03090203  RH  053%=      5-min Rain = 0
KME1 251959Z 18005KT 31/21 A30 RMK A01 T03080205  RH  054%=      5-min Rain = 0
KME1 252000Z 17004KT 31/20 A30 RMK A01 T03080203  RH  053%=      5-min Rain = 0
KME1 252001Z 14004KT 31/20 A30 RMK A01 T03090203  RH  053%=      5-min Rain = 0
KME1 252002Z 14008KT 31/21 A30 RMK A01 T03100207  RH  054%=      5-min Rain = 0
KME1 252003Z 17009KT 31/20 A30 RMK A01 T03110204  RH  053%=      5-min Rain = 0
KME1 252004Z 12008KT 31/20 A30 RMK A01 T03110204  RH  053%=      5-min Rain = 0
KME1 252005Z 11011KT 31/21 A30 RMK A01 T03110206  RH  053%=      5-min Rain = 0
KME1 252006Z 12009KT 31/20 A30 RMK A01 T03100203  RH  053%=      5-min Rain = 0
KME1 252007Z 11008KT 31/20 A30 RMK A01 T03080204  RH  054%=      5-min Rain = 0
KME1 252008Z 12007KT 31/20 A30 RMK A01 T03080200  RH  053%=      5-min Rain = 0
KME1 252009Z 15005KT 31/20 A30 RMK A01 T03070204  RH  054%=      5-min Rain = 0
KME1 252010Z 16003KT 31/21 A30 RMK A01 T03080205  RH  054%=      5-min Rain = 0
KME1 252011Z 12004KT 31/21 A30 RMK A01 T03110210  RH  055%=      5-min Rain = 0
KME1 252012Z 12003KT 31/19 A30 RMK A01 T03120194  RH  050%=      5-min Rain = 0
KME1 252013Z 14005KT 31/20 A2999 RMK A01 T03100201  RH  052%=      5-min Rain = 0
KME1 252014Z 15007KT 31/20 A2999 RMK A01 T03100202  RH  052%=      5-min Rain = 0
KME1 252015Z 17006KT 31/21 A2999 RMK A01 T03120207  RH  054%=      5-min Rain = 0
KME1 252016Z 14007KT 31/21 A2999 RMK A01 T03130207  RH  053%=      5-min Rain = 0
KME1 252017Z 14011KT 31/20 A2999 RMK A01 T03140202  RH  051%=      5-min Rain = 0
KME1 252018Z 14007KT 31/20 A2999 RMK A01 T03130200  RH  051%=      5-min Rain = 0
KME1 252019Z 13006KT 31/21 A2999 RMK A01 T03120205  RH  053%=      5-min Rain = 0
KME1 252020Z 12007KT 31/21 A2999 RMK A01 T03120205  RH  053%=      5-min Rain = 0
KME1 252021Z 14005KT 31/20 A2999 RMK A01 T03130203  RH  052%=      5-min Rain = 0
KME1 252022Z 16005KT 31/20 A2999 RMK A01 T03130200  RH  051%=      5-min Rain = 0
KME1 252023Z 18004KT 31/21 A2999 RMK A01 T03130205  RH  052%=      5-min Rain = 0
KME1 252024Z 16010KT 31/21 A2999 RMK A01 T03140206  RH  053%=      5-min Rain = 0
KME1 252025Z 16010KT 32/20 A2999 RMK A01 T03150200  RH  051%=      5-min Rain = 0
KME1 252026Z 15008KT 32/20 A2999 RMK A01 T03150203  RH  052%=      5-min Rain = 0
KME1 252027Z 15011KT 31/20 A2999 RMK A01 T03140202  RH  051%=      5-min Rain = 0
KME1 252028Z 15010KT 31/20 A2999 RMK A01 T03140202  RH  051%=      5-min Rain = 0
KME1 252029Z 12009KT 31/20 A2999 RMK A01 T03140202  RH  052%=      5-min Rain = 0
KME1 252030Z 12008KT 31/20 A2999 RMK A01 T03120202  RH  052%=      5-min Rain = 0
KME1 252031Z 14005KT 31/20 A2999 RMK A01 T03120200  RH  051%=      5-min Rain = 0
KME1 252032Z 13004KT 31/20 A2999 RMK A01 T03110198  RH  051%=      5-min Rain = 0
KME1 252033Z 13004KT 31/20 A2999 RMK A01 T03120202  RH  052%=      5-min Rain = 0
KME1 252034Z 14007KT 31/21 A2999 RMK A01 T03130208  RH  054%=      5-min Rain = 0
KME1 252035Z 14009KT 32/21 A2999 RMK A01 T03150206  RH  053%=      5-min Rain = 0
KME1 252036Z 13010KT 32/20 A2999 RMK A01 T03150204  RH  052%=      5-min Rain = 0
KME1 252037Z 15009KT 32/21 A2999 RMK A01 T03150205  RH  052%=      5-min Rain = 0
KME1 252038Z 14007KT 31/20 A2999 RMK A01 T03140203  RH  052%=      5-min Rain = 0
KME1 252039Z 15006KT 31/20 A2999 RMK A01 T03140202  RH  051%=      5-min Rain = 0
KME1 252040Z 16006KT 31/20 A2999 RMK A01 T03140204  RH  052%=      5-min Rain = 0
KME1 252041Z 18007KT 31/20 A2998 RMK A01 T03140200  RH  051%=      5-min Rain = 0
KME1 252042Z 17007KT 31/21 A2998 RMK A01 T03140206  RH  053%=      5-min Rain = 0
KME1 252043Z 17007KT 32/21 A2998 RMK A01 T03150211  RH  054%=      5-min Rain = 0
KME1 252044Z 16005KT 32/21 A2998 RMK A01 T03160207  RH  052%=      5-min Rain = 0
KME1 252045Z 15005KT 32/20 A2998 RMK A01 T03160203  RH  051%=      5-min Rain = 0
KME1 252046Z 15009KT 32/20 A2998 RMK A01 T03170204  RH  051%=      5-min Rain = 0
KME1 252047Z 15008KT 32/21 A2998 RMK A01 T03170208  RH  052%=      5-min Rain = 0
KME1 252048Z 18008KT 32/21 A2998 RMK A01 T03180208  RH  052%=      5-min Rain = 0
KME1 252049Z 17006KT 32/20 A2998 RMK A01 T03190202  RH  050%=      5-min Rain = 0
KME1 252050Z 16008KT 32/20 A2998 RMK A01 T03190204  RH  051%=      5-min Rain = 0
KME1 252051Z 15010KT 32/20 A2998 RMK A01 T03190203  RH  050%=      5-min Rain = 0
KME1 252052Z 13011KT 32/20 A2998 RMK A01 T03180199  RH  049%=      5-min Rain = 0
KME1 252053Z 13010KT 32/20 A2998 RMK A01 T03160198  RH  049%=      5-min Rain = 0
KME1 252054Z 14011KT 32/20 A2998 RMK A01 T03150199  RH  050%=      5-min Rain = 0
KME1 252055Z 15011KT 32/20 A2998 RMK A01 T03150198  RH  050%=      5-min Rain = 0
KME1 252056Z 16008KT 31/20 A2998 RMK A01 T03140197  RH  050%=      5-min Rain = 0
KME1 252057Z 14008KT 31/20 A2998 RMK A01 T03140200  RH  051%=      5-min Rain = 0
KME1 252058Z 12008KT 31/20 A2998 RMK A01 T03140201  RH  051%=      5-min Rain = 0
KME1 252059Z 14008KT 31/20 A2998 RMK A01 T03140199  RH  051%=      5-min Rain = 0
KME1 252100Z 16009G15KT 31/20 A2998 RMK A01 T03140197  RH  050%=      5-min Rain = 0
KME1 252101Z 14012KT 31/20 A2998 RMK A01 T03140201  RH  051%=      5-min Rain = 0
KME1 252102Z 15009KT 32/21 A2998 RMK A01 T03150205  RH  052%=      5-min Rain = 0
KME1 252103Z 14008KT 32/20 A2998 RMK A01 T03160200  RH  050%=      5-min Rain = 0
KME1 252104Z 14006KT 32/20 A2998 RMK A01 T03160199  RH  050%=      5-min Rain = 0
KME1 252105Z 15009KT 32/20 A2998 RMK A01 T03160201  RH  051%=      5-min Rain = 0
KME1 252106Z 17010KT 32/20 A2998 RMK A01 T03160198  RH  049%=      5-min Rain = 0
KME1 252107Z 18010KT 32/20 A2998 RMK A01 T03170196  RH  049%=      5-min Rain = 0
KME1 252108Z 19009KT 32/20 A2998 RMK A01 T03160199  RH  050%=      5-min Rain = 0
KME1 252109Z 18008KT 32/20 A2998 RMK A01 T03150197  RH  049%=      5-min Rain = 0
KME1 252110Z 13007KT 32/20 A2998 RMK A01 T03160201  RH  050%=      5-min Rain = 0
KME1 252111Z 14008KT 32/20 A2998 RMK A01 T03160201  RH  050%=      5-min Rain = 0
KME1 252112Z 13008KT 32/20 A2998 RMK A01 T03160198  RH  050%=      5-min Rain = 0
KME1 252113Z 16006G14KT 32/20 A2998 RMK A01 T03150203  RH  051%=      5-min Rain = 0
KME1 252114Z 14013KT 32/20 A2998 RMK A01 T03150201  RH  051%=      5-min Rain = 0
KME1 252115Z 15011KT 32/20 A2998 RMK A01 T03150197  RH  050%=      5-min Rain = 0
KME1 252116Z 15007KT 32/20 A2998 RMK A01 T03150199  RH  050%=      5-min Rain = 0
KME1 252117Z 17007G14KT 32/20 A2998 RMK A01 T03160204  RH  052%=      5-min Rain = 0
KME1 252118Z 17012KT 32/20 A2998 RMK A01 T03170200  RH  050%=      5-min Rain = 0
KME1 252119Z 16011KT 32/20 A2998 RMK A01 T03170203  RH  051%=      5-min Rain = 0
KME1 252120Z 15012KT 32/20 A2998 RMK A01 T03160199  RH  050%=      5-min Rain = 0
KME1 252121Z 17011KT 32/20 A2998 RMK A01 T03160197  RH  049%=      5-min Rain = 0
KME1 252122Z 18010KT 32/20 A2998 RMK A01 T03160201  RH  051%=      5-min Rain = 0
KME1 252123Z 17009KT 32/20 A2998 RMK A01 T03160202  RH  051%=      5-min Rain = 0
KME1 252124Z 16010KT 32/20 A2998 RMK A01 T03160203  RH  051%=      5-min Rain = 0
KME1 252125Z 15008KT 32/20 A2998 RMK A01 T03170203  RH  051%=      5-min Rain = 0
KME1 252126Z 14006KT 32/21 A2997 RMK A01 T03180206  RH  051%=      5-min Rain = 0
KME1 252127Z 15009G15KT 32/21 A2997 RMK A01 T03200206  RH  051%=      5-min Rain = 0
KME1 252128Z 15010KT 32/21 A2997 RMK A01 T03210205  RH  050%=      5-min Rain = 0
KME1 252129Z 16011KT 32/20 A2997 RMK A01 T03210200  RH  049%=      5-min Rain = 0
KME1 252130Z 16011KT 32/20 A2997 RMK A01 T03190197  RH  048%=      5-min Rain = 0
KME1 252131Z 14009KT 32/20 A2997 RMK A01 T03170198  RH  049%=      5-min Rain = 0
KME1 252132Z 15007KT 32/20 A2997 RMK A01 T03170204  RH  051%=      5-min Rain = 0
KME1 252133Z 15008KT 32/20 A2997 RMK A01 T03180204  RH  051%=      5-min Rain = 0
KME1 252134Z 12011KT 32/20 A2997 RMK A01 T03190200  RH  049%=      5-min Rain = 0
KME1 252135Z 12009KT 32/20 A2997 RMK A01 T03180198  RH  049%=      5-min Rain = 0
KME1 252136Z 12007KT 32/20 A2997 RMK A01 T03160195  RH  049%=      5-min Rain = 0
KME1 252137Z 13007KT 32/20 A2997 RMK A01 T03160199  RH  050%=      5-min Rain = 0
KME1 252138Z 16008KT 32/20 A2997 RMK A01 T03160202  RH  051%=      5-min Rain = 0
KME1 252139Z 16009KT 32/20 A2997 RMK A01 T03180199  RH  049%=      5-min Rain = 0
KME1 252140Z 15008KT 32/20 A2997 RMK A01 T03180199  RH  049%=      5-min Rain = 0
KME1 252141Z 16009KT 32/20 A2997 RMK A01 T03190201  RH  050%=      5-min Rain = 0
KME1 252142Z 15007KT 32/20 A2997 RMK A01 T03190197  RH  048%=      5-min Rain = 0
KME1 252143Z 14010KT 32/20 A2997 RMK A01 T03190202  RH  050%=      5-min Rain = 0
KME1 252144Z 14009KT 32/20 A2997 RMK A01 T03200198  RH  049%=      5-min Rain = 0
KME1 252145Z 14007KT 32/20 A2997 RMK A01 T03190204  RH  051%=      5-min Rain = 0
KME1 252146Z 15007KT 32/20 A2997 RMK A01 T03190200  RH  049%=      5-min Rain = 0
KME1 252147Z 13006KT 32/20 A2997 RMK A01 T03190200  RH  049%=      5-min Rain = 0
KME1 252148Z 11011KT 32/20 A2997 RMK A01 T03200203  RH  050%=      5-min Rain = 0
KME1 252149Z 12007G12KT 32/20 A2997 RMK A01 T03190198  RH  049%=      5-min Rain = 0
KME1 252150Z 12010KT 32/20 A2997 RMK A01 T03180200  RH  050%=      5-min Rain = 0
KME1 252151Z 12009KT 32/20 A2997 RMK A01 T03180200  RH  050%=      5-min Rain = 0
KME1 252152Z 12010KT 32/20 A2997 RMK A01 T03180200  RH  050%=      5-min Rain = 0
KME1 252153Z 12010KT 32/20 A2997 RMK A01 T03180199  RH  049%=      5-min Rain = 0
KME1 252154Z 14010KT 32/20 A2997 RMK A01 T03190199  RH  049%=      5-min Rain = 0
KME1 252155Z 15013KT 32/19 A2997 RMK A01 T03190192  RH  047%=      5-min Rain = 0
KME1 252156Z 16010KT 32/19 A2997 RMK A01 T03180190  RH  047%=      5-min Rain = 0
KME1 252157Z 14009KT 32/19 A2997 RMK A01 T03180190  RH  047%=      5-min Rain = 0
KME1 252158Z 14012KT 32/19 A2997 RMK A01 T03180189  RH  046%=      5-min Rain = 0
KME1 252159Z 14010KT 32/19 A2997 RMK A01 T03170187  RH  046%=      5-min Rain = 0
KME1 252200Z 14008KT 32/19 A2997 RMK A01 T03160192  RH  048%=      5-min Rain = 0
KME1 252201Z 14008KT 32/19 A2997 RMK A01 T03160192  RH  048%=      5-min Rain = 0
KME1 252202Z 15010KT 32/19 A2997 RMK A01 T03160194  RH  048%=      5-min Rain = 0
KME1 252203Z 15011KT 32/19 A2997 RMK A01 T03170193  RH  048%=      5-min Rain = 0
KME1 252204Z 15012KT 32/19 A2997 RMK A01 T03160193  RH  048%=      5-min Rain = 0
KME1 252205Z 15009KT 32/19 A2997 RMK A01 T03160192  RH  048%=      5-min Rain = 0
KME1 252206Z 14009KT 32/19 A2997 RMK A01 T03160192  RH  048%=      5-min Rain = 0
KME1 252207Z 14009KT 32/19 A2997 RMK A01 T03170192  RH  047%=      5-min Rain = 0
KME1 252208Z 13008KT 32/19 A2997 RMK A01 T03170189  RH  047%=      5-min Rain = 0
KME1 252209Z 14008KT 32/19 A2997 RMK A01 T03170193  RH  048%=      5-min Rain = 0
KME1 252210Z 13007KT 32/19 A2997 RMK A01 T03170188  RH  046%=      5-min Rain = 0
KME1 252211Z 16009KT 32/19 A2997 RMK A01 T03170191  RH  047%=      5-min Rain = 0
KME1 252212Z 16010KT 32/19 A2997 RMK A01 T03180190  RH  047%=      5-min Rain = 0
KME1 252213Z 16011KT 32/19 A2997 RMK A01 T03180190  RH  047%=      5-min Rain = 0
KME1 252214Z 16010KT 32/19 A2997 RMK A01 T03180190  RH  047%=      5-min Rain = 0
KME1 252215Z 17010KT 32/19 A2997 RMK A01 T03170191  RH  047%=      5-min Rain = 0
KME1 252216Z 16011KT 32/19 A2997 RMK A01 T03170190  RH  047%=      5-min Rain = 0
KME1 252217Z 15008G13KT 32/19 A2997 RMK A01 T03160192  RH  048%=      5-min Rain = 0
KME1 252218Z 13008KT 32/20 A2997 RMK A01 T03160196  RH  049%=      5-min Rain = 0
KME1 252219Z 12008KT 32/19 A2997 RMK A01 T03170194  RH  048%=      5-min Rain = 0
KME1 252220Z 12011KT 32/20 A2997 RMK A01 T03170196  RH  049%=      5-min Rain = 0
KME1 252221Z 12009KT 32/19 A2997 RMK A01 T03170193  RH  048%=      5-min Rain = 0
KME1 252222Z 11009KT 32/19 A2997 RMK A01 T03160194  RH  048%=      5-min Rain = 0
KME1 252223Z 12009KT 32/19 A2997 RMK A01 T03160189  RH  047%=      5-min Rain = 0
KME1 252224Z 12009KT 32/19 A2997 RMK A01 T03160188  RH  047%=      5-min Rain = 0
KME1 252225Z 12009KT 32/19 A2997 RMK A01 T03160191  RH  048%=      5-min Rain = 0
KME1 252226Z 12009KT 32/19 A2997 RMK A01 T03160193  RH  048%=      5-min Rain = 0
KME1 252227Z 12009KT 32/19 A2997 RMK A01 T03170193  RH  048%=      5-min Rain = 0
KME1 252228Z 12009KT 32/19 A2997 RMK A01 T03170192  RH  047%=      5-min Rain = 0
KME1 252229Z 14008KT 32/19 A2997 RMK A01 T03170190  RH  047%=      5-min Rain = 0
KME1 252230Z 14008KT 32/19 A2997 RMK A01 T03150191  RH  048%=      5-min Rain = 0
KME1 252231Z 15011KT 31/19 A2997 RMK A01 T03140187  RH  047%=      5-min Rain = 0
KME1 252232Z 14010KT 31/19 A2997 RMK A01 T03130188  RH  047%=      5-min Rain = 0
KME1 252233Z 13008KT 31/18 A2997 RMK A01 T03140181  RH  045%=      5-min Rain = 0
KME1 252234Z 16008KT 32/19 A2997 RMK A01 T03150185  RH  046%=      5-min Rain = 0
KME1 252235Z 15010KT 32/18 A2997 RMK A01 T03160182  RH  045%=      5-min Rain = 0
KME1 252236Z 14008KT 32/18 A2997 RMK A01 T03160178  RH  044%=      5-min Rain = 0
KME1 252237Z 13009KT 32/18 A2997 RMK A01 T03170181  RH  045%=      5-min Rain = 0
KME1 252238Z 12007KT 32/18 A2996 RMK A01 T03170183  RH  045%=      5-min Rain = 0
KME1 252239Z 14008KT 32/19 A2996 RMK A01 T03170190  RH  047%=      5-min Rain = 0
KME1 252240Z 13008KT 32/19 A2996 RMK A01 T03170186  RH  046%=      5-min Rain = 0
KME1 252241Z 15008KT 32/19 A2996 RMK A01 T03170190  RH  047%=      5-min Rain = 0
KME1 252242Z 17007KT 32/19 A2996 RMK A01 T03170189  RH  047%=      5-min Rain = 0
KME1 252243Z 18010KT 32/19 A2996 RMK A01 T03170189  RH  047%=      5-min Rain = 0
KME1 252244Z 16012KT 32/19 A2996 RMK A01 T03170189  RH  046%=      5-min Rain = 0
KME1 252245Z 13010KT 32/19 A2996 RMK A01 T03170188  RH  046%=      5-min Rain = 0
KME1 252246Z 12008KT 32/19 A2996 RMK A01 T03170190  RH  047%=      5-min Rain = 0
KME1 252247Z 12008KT 32/19 A2996 RMK A01 T03170186  RH  046%=      5-min Rain = 0
KME1 252248Z 12007KT 32/18 A2996 RMK A01 T03170183  RH  045%=      5-min Rain = 0
KME1 252249Z 12008KT 32/19 A2996 RMK A01 T03170186  RH  046%=      5-min Rain = 0
KME1 252250Z 14008KT 32/19 A2996 RMK A01 T03170187  RH  046%=      5-min Rain = 0
KME1 252251Z 16009KT 32/19 A2996 RMK A01 T03170185  RH  046%=      5-min Rain = 0
KME1 252252Z 16007KT 32/19 A2996 RMK A01 T03170186  RH  046%=      5-min Rain = 0
KME1 252253Z 15007KT 32/19 A2996 RMK A01 T03170189  RH  047%=      5-min Rain = 0
KME1 252254Z 16006KT 32/19 A2996 RMK A01 T03180187  RH  046%=      5-min Rain = 0
KME1 252255Z 16006KT 32/19 A2996 RMK A01 T03180186  RH  046%=      5-min Rain = 0
KME1 252256Z 17009KT 32/18 A2996 RMK A01 T03180184  RH  045%=      5-min Rain = 0
KME1 252257Z 18008KT 32/18 A2996 RMK A01 T03170183  RH  045%=      5-min Rain = 0
KME1 252258Z 14010KT 32/18 A2996 RMK A01 T03160183  RH  045%=      5-min Rain = 0
KME1 252259Z 13009KT 32/18 A2996 RMK A01 T03150182  RH  045%=      5-min Rain = 0
KME1 252300Z 14011KT 32/19 A2996 RMK A01 T03150185  RH  046%=      5-min Rain = 0
KME1 252301Z 14009KT 31/18 A2996 RMK A01 T03140180  RH  045%=      5-min Rain = 0
KME1 252302Z 14007KT 31/19 A2996 RMK A01 T03140185  RH  046%=      5-min Rain = 0
KME1 252303Z 15008KT 32/19 A2996 RMK A01 T03150187  RH  046%=      5-min Rain = 0
KME1 252304Z 15006KT 32/19 A2996 RMK A01 T03160187  RH  046%=      5-min Rain = 0
KME1 252305Z 14007KT 32/19 A2996 RMK A01 T03160190  RH  047%=      5-min Rain = 0
KME1 252306Z 13010KT 32/18 A2996 RMK A01 T03160184  RH  045%=      5-min Rain = 0
KME1 252307Z 13009KT 32/19 A2996 RMK A01 T03160188  RH  047%=      5-min Rain = 0
KME1 252308Z 14011KT 32/18 A2996 RMK A01 T03160184  RH  045%=      5-min Rain = 0
KME1 252309Z 14010KT 32/18 A2996 RMK A01 T03160184  RH  045%=      5-min Rain = 0
KME1 252310Z 13008KT 32/18 A2996 RMK A01 T03160183  RH  045%=      5-min Rain = 0
KME1 252311Z 15009G15KT 32/18 A2996 RMK A01 T03150182  RH  045%=      5-min Rain = 0
KME1 252312Z 16011KT 32/18 A2996 RMK A01 T03150184  RH  046%=      5-min Rain = 0
KME1 252313Z 17010KT 32/18 A2996 RMK A01 T03150181  RH  045%=      5-min Rain = 0
KME1 252314Z 16009KT 32/18 A2996 RMK A01 T03150184  RH  046%=      5-min Rain = 0
KME1 252315Z 14007KT 31/18 A2996 RMK A01 T03140183  RH  046%=      5-min Rain = 0
KME1 252316Z 11006KT 31/19 A2996 RMK A01 T03140188  RH  047%=      5-min Rain = 0
KME1 252317Z 12008G13KT 32/19 A2996 RMK A01 T03150189  RH  047%=      5-min Rain = 0
KME1 252318Z 13011KT 32/18 A2996 RMK A01 T03150183  RH  045%=      5-min Rain = 0
KME1 252319Z 13009KT 32/18 A2996 RMK A01 T03150180  RH  045%=      5-min Rain = 0
KME1 252320Z 12010KT 31/18 A2996 RMK A01 T03140180  RH  045%=      5-min Rain = 0
KME1 252321Z 12008KT 31/18 A2996 RMK A01 T03140180  RH  045%=      5-min Rain = 0
KME1 252322Z 11011KT 31/18 A2996 RMK A01 T03130181  RH  045%=      5-min Rain = 0
KME1 252323Z 13011KT 31/18 A2996 RMK A01 T03130177  RH  044%=      5-min Rain = 0
KME1 252324Z 12011KT 31/18 A2996 RMK A01 T03130181  RH  045%=      5-min Rain = 0
KME1 252325Z 13009KT 31/18 A2996 RMK A01 T03130180  RH  045%=      5-min Rain = 0
KME1 252326Z 12008G15KT 31/18 A2996 RMK A01 T03130184  RH  046%=      5-min Rain = 0
KME1 252327Z 12012KT 31/18 A2996 RMK A01 T03130177  RH  044%=      5-min Rain = 0
KME1 252328Z 12011KT 31/18 A2996 RMK A01 T03130177  RH  044%=      5-min Rain = 0
KME1 252329Z 14009KT 31/18 A2996 RMK A01 T03120177  RH  044%=      5-min Rain = 0
KME1 252330Z 15008KT 31/18 A2996 RMK A01 T03110180  RH  046%=      5-min Rain = 0
KME1 252331Z 15008KT 31/18 A2996 RMK A01 T03110183  RH  046%=      5-min Rain = 0
KME1 252332Z 14006KT 31/18 A2995 RMK A01 T03110182  RH  046%=      5-min Rain = 0
KME1 252333Z 14005KT 31/19 A2995 RMK A01 T03120186  RH  047%=      5-min Rain = 0
KME1 252334Z 12008KT 31/18 A2995 RMK A01 T03130183  RH  046%=      5-min Rain = 0
KME1 252335Z 12008KT 31/18 A2996 RMK A01 T03130179  RH  045%=      5-min Rain = 0
KME1 252336Z 12011KT 31/18 A2996 RMK A01 T03130177  RH  044%=      5-min Rain = 0
KME1 252337Z 13011KT 31/17 A2995 RMK A01 T03130170  RH  042%=      5-min Rain = 0
KME1 252338Z 14011KT 31/17 A2995 RMK A01 T03120173  RH  043%=      5-min Rain = 0
KME1 252339Z 13011KT 31/17 A2995 RMK A01 T03120171  RH  043%=      5-min Rain = 0
KME1 252340Z 14011KT 31/18 A2996 RMK A01 T03120175  RH  044%=      5-min Rain = 0
KME1 252341Z 14011KT 31/17 A2995 RMK A01 T03120172  RH  043%=      5-min Rain = 0
KME1 252342Z 15011KT 31/18 A2996 RMK A01 T03110175  RH  044%=      5-min Rain = 0
KME1 252343Z 16009KT 31/17 A2996 RMK A01 T03110174  RH  044%=      5-min Rain = 0
KME1 252344Z 15008KT 31/18 A2995 RMK A01 T03110176  RH  044%=      5-min Rain = 0
KME1 252345Z 14007KT 31/18 A2995 RMK A01 T03110179  RH  045%=      5-min Rain = 0
KME1 252346Z 16011KT 31/18 A2995 RMK A01 T03110175  RH  044%=      5-min Rain = 0
KME1 252347Z 15011KT 31/17 A2995 RMK A01 T03110173  RH  044%=      5-min Rain = 0
KME1 252348Z 15008KT 31/18 A2995 RMK A01 T03110177  RH  045%=      5-min Rain = 0
KME1 252349Z 14008KT 31/18 A2995 RMK A01 T03110179  RH  045%=      5-min Rain = 0
KME1 252350Z 15008KT 31/18 A2995 RMK A01 T03110180  RH  046%=      5-min Rain = 0
KME1 252351Z 14011KT 31/18 A2995 RMK A01 T03100175  RH  044%=      5-min Rain = 0
KME1 252352Z 15010KT 31/18 A2995 RMK A01 T03100177  RH  045%=      5-min Rain = 0
KME1 252353Z 15008KT 31/18 A2995 RMK A01 T03090176  RH  045%=      5-min Rain = 0
KME1 252354Z 15008KT 31/18 A2996 RMK A01 T03090176  RH  045%=      5-min Rain = 0
KME1 252355Z 16010KT 31/18 A2996 RMK A01 T03090175  RH  045%=      5-min Rain = 0
KME1 252356Z 16011KT 31/17 A2996 RMK A01 T03090174  RH  044%=      5-min Rain = 0
KME1 252357Z 16010KT 31/17 A2995 RMK A01 T03090171  RH  044%=      5-min Rain = 0
KME1 252358Z 16010KT 31/17 A2995 RMK A01 T03080173  RH  044%=      5-min Rain = 0
KME1 252359Z 16011KT 31/17 A2995 RMK A01 T03080170  RH  044%=      5-min Rain = 0
KME1 260000Z 16010KT 31/17 A2995 RMK A01 T03080170  RH  044%=      5-min Rain = 0
KME1 260001Z 15009KT 31/17 A2995 RMK A01 T03080173  RH  044%=      5-min Rain = 0
KME1 260002Z 16009KT 31/18 A2995 RMK A01 T03080175  RH  045%=      5-min Rain = 0
KME1 260003Z 16012KT 31/17 A2995 RMK A01 T03080174  RH  045%=      5-min Rain = 0
KME1 260004Z 17011KT 31/17 A2995 RMK A01 T03070171  RH  044%=      5-min Rain = 0
KME1 260005Z 16011KT 31/17 A2995 RMK A01 T03060172  RH  045%=      5-min Rain = 0
KME1 260006Z 16012KT 31/17 A2995 RMK A01 T03050172  RH  045%=      5-min Rain = 0
KME1 260007Z 15012KT 31/17 A2995 RMK A01 T03050169  RH  044%=      5-min Rain = 0
KME1 260008Z 15009KT 31/17 A2995 RMK A01 T03050170  RH  044%=      5-min Rain = 0
KME1 260009Z 14009KT 31/17 A2995 RMK A01 T03050171  RH  045%=      5-min Rain = 0
KME1 260010Z 14009KT 30/17 A2996 RMK A01 T03040174  RH  046%=      5-min Rain = 0
KME1 260011Z 14009KT 30/18 A2995 RMK A01 T03030175  RH  046%=      5-min Rain = 0
KME1 260012Z 13009KT 30/18 A2995 RMK A01 T03030175  RH  046%=      5-min Rain = 0
KME1 260013Z 14010KT 30/17 A2995 RMK A01 T03030174  RH  046%=      5-min Rain = 0
KME1 260014Z 14009KT 30/17 A2995 RMK A01 T03030173  RH  046%=      5-min Rain = 0
KME1 260015Z 14008KT 30/17 A2995 RMK A01 T03030172  RH  046%=      5-min Rain = 0
KME1 260016Z 15006KT 30/18 A2995 RMK A01 T03030177  RH  047%=      5-min Rain = 0
KME1 260017Z 14006KT 30/18 A2995 RMK A01 T03030179  RH  047%=      5-min Rain = 0
KME1 260018Z 15008KT 30/18 A2995 RMK A01 T03040178  RH  047%=      5-min Rain = 0
KME1 260019Z 15009KT 30/18 A2995 RMK A01 T03040177  RH  047%=      5-min Rain = 0
KME1 260020Z 15008KT 30/18 A2995 RMK A01 T03040177  RH  046%=      5-min Rain = 0
KME1 260021Z 13010KT 31/18 A2995 RMK A01 T03050178  RH  046%=      5-min Rain = 0
KME1 260022Z 14010KT 31/18 A2995 RMK A01 T03060178  RH  046%=      5-min Rain = 0
KME1 260023Z 14010KT 31/18 A2995 RMK A01 T03050177  RH  046%=      5-min Rain = 0
KME1 260024Z 14008KT 31/18 A2995 RMK A01 T03050178  RH  046%=      5-min Rain = 0
KME1 260025Z 13011KT 31/18 A2995 RMK A01 T03050176  RH  046%=      5-min Rain = 0
KME1 260026Z 13011KT 30/18 A2995 RMK A01 T03040175  RH  046%=      5-min Rain = 0
KME1 260027Z 13010KT 30/18 A2995 RMK A01 T03040175  RH  046%=      5-min Rain = 0
KME1 260028Z 14009G17KT 30/18 A2996 RMK A01 T03040178  RH  047%=      5-min Rain = 0
KME1 260029Z 15013KT 30/17 A2996 RMK A01 T03030174  RH  046%=      5-min Rain = 0
KME1 260030Z 15011KT 30/18 A2996 RMK A01 T03030175  RH  046%=      5-min Rain = 0
KME1 260031Z 14010KT 30/18 A2996 RMK A01 T03040176  RH  046%=      5-min Rain = 0
KME1 260032Z 13011KT 30/18 A2996 RMK A01 T03040175  RH  046%=      5-min Rain = 0
KME1 260033Z 13010KT 30/17 A2996 RMK A01 T03030173  RH  046%=      5-min Rain = 0
KME1 260034Z 12009G14KT 30/18 A2996 RMK A01 T03040175  RH  046%=      5-min Rain = 0
KME1 260035Z 12009KT 30/17 A2996 RMK A01 T03030174  RH  046%=      5-min Rain = 0
KME1 260036Z 13009KT 30/18 A2996 RMK A01 T03030176  RH  046%=      5-min Rain = 0
KME1 260037Z 14010KT 30/18 A2996 RMK A01 T03030177  RH  047%=      5-min Rain = 0
KME1 260038Z 14009KT 30/17 A2996 RMK A01 T03030174  RH  046%=      5-min Rain = 0
KME1 260039Z 13010KT 30/18 A2996 RMK A01 T03020175  RH  046%=      5-min Rain = 0
KME1 260040Z 14011KT 30/18 A2996 RMK A01 T03020175  RH  046%=      5-min Rain = 0
KME1 260041Z 14012KT 30/18 A2996 RMK A01 T03020175  RH  046%=      5-min Rain = 0
KME1 260042Z 14011KT 30/17 A2996 RMK A01 T03020172  RH  046%=      5-min Rain = 0
KME1 260043Z 14008KT 30/17 A2996 RMK A01 T03020174  RH  046%=      5-min Rain = 0
KME1 260044Z 15009KT 30/18 A2996 RMK A01 T03020176  RH  047%=      5-min Rain = 0
KME1 260045Z 15007KT 30/18 A2996 RMK A01 T03010176  RH  047%=      5-min Rain = 0
KME1 260046Z 14009KT 30/18 A2997 RMK A01 T03000176  RH  047%=      5-min Rain = 0
KME1 260047Z 14009KT 30/17 A2996 RMK A01 T03000173  RH  047%=      5-min Rain = 0
KME1 260048Z 13010KT 30/17 A2997 RMK A01 T02990174  RH  047%=      5-min Rain = 0
KME1 260049Z 15012KT 30/17 A2996 RMK A01 T02990174  RH  047%=      5-min Rain = 0
KME1 260050Z 14011KT 30/17 A2996 RMK A01 T02980172  RH  047%=      5-min Rain = 0
KME1 260051Z 15011KT 30/17 A2996 RMK A01 T02990171  RH  046%=      5-min Rain = 0
KME1 260052Z 15010KT 30/17 A2996 RMK A01 T02990172  RH  047%=      5-min Rain = 0
KME1 260053Z 14009KT 30/17 A2996 RMK A01 T02990172  RH  046%=      5-min Rain = 0
KME1 260054Z 15007KT 30/17 A2996 RMK A01 T02990173  RH  047%=      5-min Rain = 0
KME1 260055Z 14009KT 30/17 A2996 RMK A01 T02990174  RH  047%=      5-min Rain = 0
KME1 260056Z 14008KT 30/17 A2996 RMK A01 T02990173  RH  047%=      5-min Rain = 0
KME1 260057Z 15006KT 30/17 A2997 RMK A01 T02980174  RH  047%=      5-min Rain = 0
KME1 260058Z 14009KT 30/17 A2997 RMK A01 T02980173  RH  047%=      5-min Rain = 0
KME1 260059Z 14009KT 30/17 A2997 RMK A01 T02970171  RH  047%=      5-min Rain = 0
KME1 260100Z 15010KT 30/17 A2997 RMK A01 T02970171  RH  047%=      5-min Rain = 0
KME1 260101Z 14009KT 30/17 A2997 RMK A01 T02970171  RH  047%=      5-min Rain = 0
KME1 260102Z 14011KT 30/17 A2997 RMK A01 T02960169  RH  046%=      5-min Rain = 0
KME1 260103Z 15009KT 30/17 A2997 RMK A01 T02950169  RH  046%=      5-min Rain = 0
KME1 260104Z 15011KT 30/17 A2997 RMK A01 T02950169  RH  047%=      5-min Rain = 0
KME1 260105Z 14010KT 30/17 A2997 RMK A01 T02960168  RH  046%=      5-min Rain = 0
KME1 260106Z 14009KT 30/17 A2997 RMK A01 T02950168  RH  046%=      5-min Rain = 0
KME1 260107Z 14008KT 30/17 A2997 RMK A01 T02950168  RH  046%=      5-min Rain = 0
KME1 260108Z 15007KT 30/17 A2997 RMK A01 T02960169  RH  047%=      5-min Rain = 0
KME1 260109Z 14007KT 30/17 A2997 RMK A01 T02950169  RH  047%=      5-min Rain = 0
KME1 260110Z 14008KT 30/17 A2997 RMK A01 T02960170  RH  047%=      5-min Rain = 0
KME1 260111Z 14008KT 30/17 A2997 RMK A01 T02950170  RH  047%=      5-min Rain = 0
KME1 260112Z 14006KT 30/17 A2997 RMK A01 T02950172  RH  047%=      5-min Rain = 0
KME1 260113Z 14006KT 29/17 A2997 RMK A01 T02940172  RH  048%=      5-min Rain = 0
KME1 260114Z 14007KT 29/17 A2997 RMK A01 T02930172  RH  048%=      5-min Rain = 0
KME1 260115Z 14006KT 29/17 A2997 RMK A01 T02920170  RH  048%=      5-min Rain = 0
KME1 260116Z 14007KT 29/17 A2997 RMK A01 T02920172  RH  048%=      5-min Rain = 0
KME1 260117Z 14006KT 29/17 A2997 RMK A01 T02920172  RH  048%=      5-min Rain = 0
KME1 260118Z 14005KT 29/17 A2997 RMK A01 T02910173  RH  049%=      5-min Rain = 0
KME1 260119Z 14005KT 29/17 A2997 RMK A01 T02910174  RH  049%=      5-min Rain = 0
KME1 260120Z 13006KT 29/17 A2997 RMK A01 T02890174  RH  050%=      5-min Rain = 0
KME1 260121Z 14006KT 29/17 A2997 RMK A01 T02890174  RH  050%=      5-min Rain = 0
KME1 260122Z 14006KT 29/17 A2997 RMK A01 T02880173  RH  050%=      5-min Rain = 0
KME1 260123Z 14005KT 29/17 A2997 RMK A01 T02870174  RH  050%=      5-min Rain = 0
KME1 260124Z 14007KT 29/17 A2997 RMK A01 T02860174  RH  051%=      5-min Rain = 0
KME1 260125Z 14006KT 29/17 A2997 RMK A01 T02860173  RH  051%=      5-min Rain = 0
KME1 260126Z 14006KT 29/17 A2997 RMK A01 T02860171  RH  050%=      5-min Rain = 0
KME1 260127Z 14008KT 29/17 A2997 RMK A01 T02850171  RH  050%=      5-min Rain = 0
KME1 260128Z 15008KT 29/17 A2997 RMK A01 T02850170  RH  050%=      5-min Rain = 0
KME1 260129Z 14006KT 29/17 A2997 RMK A01 T02850171  RH  050%=      5-min Rain = 0
KME1 260130Z 15006KT 29/17 A2997 RMK A01 T02850173  RH  050%=      5-min Rain = 0
KME1 260131Z 15005KT 28/17 A2997 RMK A01 T02840173  RH  051%=      5-min Rain = 0
KME1 260132Z 15007KT 28/17 A2997 RMK A01 T02830173  RH  051%=      5-min Rain = 0
KME1 260133Z 15006KT 28/17 A2997 RMK A01 T02820172  RH  051%=      5-min Rain = 0
KME1 260134Z 15006KT 28/17 A2997 RMK A01 T02810173  RH  052%=      5-min Rain = 0
KME1 260135Z 15005KT 28/17 A2997 RMK A01 T02800173  RH  052%=      5-min Rain = 0
KME1 260136Z 15005KT 28/17 A2997 RMK A01 T02800173  RH  052%=      5-min Rain = 0
KME1 260137Z 15005KT 28/17 A2997 RMK A01 T02790173  RH  053%=      5-min Rain = 0
KME1 260138Z 15005KT 28/17 A2997 RMK A01 T02780173  RH  053%=      5-min Rain = 0
KME1 260139Z 14005KT 28/17 A2997 RMK A01 T02770172  RH  053%=      5-min Rain = 0
KME1 260140Z 15004KT 28/17 A2997 RMK A01 T02770173  RH  053%=      5-min Rain = 0
KME1 260141Z 15005KT 28/17 A2997 RMK A01 T02760174  RH  054%=      5-min Rain = 0
KME1 260142Z 15005KT 28/17 A2997 RMK A01 T02750174  RH  054%=      5-min Rain = 0
KME1 260143Z 15005KT 27/18 A2997 RMK A01 T02740176  RH  055%=      5-min Rain = 0
KME1 260144Z 16004KT 27/18 A2997 RMK A01 T02730175  RH  055%=      5-min Rain = 0
KME1 260145Z 16004KT 27/18 A2997 RMK A01 T02720175  RH  055%=      5-min Rain = 0
KME1 260146Z 16004KT 27/18 A2997 RMK A01 T02710176  RH  056%=      5-min Rain = 0
KME1 260147Z 16005KT 27/18 A2997 RMK A01 T02700175  RH  056%=      5-min Rain = 0
KME1 260148Z 16005KT 27/18 A2997 RMK A01 T02690175  RH  056%=      5-min Rain = 0
KME1 260149Z 16005KT 27/18 A2997 RMK A01 T02680175  RH  057%=      5-min Rain = 0
KME1 260150Z 15004KT 27/18 A2997 RMK A01 T02680176  RH  057%=      5-min Rain = 0
KME1 260151Z 16004KT 27/18 A2997 RMK A01 T02680177  RH  058%=      5-min Rain = 0
KME1 260152Z 15004KT 27/18 A2997 RMK A01 T02670178  RH  058%=      5-min Rain = 0
KME1 260153Z 15004KT 27/18 A2997 RMK A01 T02660177  RH  058%=      5-min Rain = 0
KME1 260154Z 15004KT 27/18 A2997 RMK A01 T02650178  RH  059%=      5-min Rain = 0
KME1 260155Z 15005KT 27/18 A2997 RMK A01 T02650177  RH  059%=      5-min Rain = 0
KME1 260156Z 15005KT 26/18 A2997 RMK A01 T02640176  RH  058%=      5-min Rain = 0
KME1 260157Z 16004KT 26/18 A2997 RMK A01 T02640177  RH  059%=      5-min Rain = 0
KME1 260158Z 16005KT 26/18 A2997 RMK A01 T02630175  RH  058%=      5-min Rain = 0
KME1 260159Z 15006KT 26/17 A2997 RMK A01 T02630174  RH  058%=      5-min Rain = 0
KME1 260200Z 15006KT 26/17 A2997 RMK A01 T02640174  RH  058%=      5-min Rain = 0
KME1 260201Z 15005KT 26/18 A2997 RMK A01 T02640175  RH  058%=      5-min Rain = 0
KME1 260202Z 15006KT 26/17 A2997 RMK A01 T02640174  RH  058%=      5-min Rain = 0
KME1 260203Z 15006KT 26/17 A2998 RMK A01 T02640174  RH  058%=      5-min Rain = 0
KME1 260204Z 15005KT 26/17 A2998 RMK A01 T02640174  RH  058%=      5-min Rain = 0
KME1 260205Z 15006KT 26/18 A2998 RMK A01 T02640175  RH  058%=      5-min Rain = 0
KME1 260206Z 15005KT 26/18 A2998 RMK A01 T02640175  RH  058%=      5-min Rain = 0
KME1 260207Z 15006KT 26/18 A2998 RMK A01 T02630175  RH  058%=      5-min Rain = 0
KME1 260208Z 15005KT 26/18 A2998 RMK A01 T02630175  RH  059%=      5-min Rain = 0
KME1 260209Z 15005KT 26/18 A2998 RMK A01 T02620175  RH  059%=      5-min Rain = 0
KME1 260210Z 15005KT 26/18 A2998 RMK A01 T02620175  RH  059%=      5-min Rain = 0
KME1 260211Z 14005KT 26/18 A2998 RMK A01 T02620175  RH  059%=      5-min Rain = 0
KME1 260212Z 14005KT 26/18 A2998 RMK A01 T02610176  RH  059%=      5-min Rain = 0
KME1 260213Z 15004KT 26/18 A2998 RMK A01 T02610176  RH  059%=      5-min Rain = 0
KME1 260214Z 15005KT 26/18 A2998 RMK A01 T02610176  RH  060%=      5-min Rain = 0
KME1 260215Z 15005KT 26/18 A2998 RMK A01 T02600176  RH  060%=      5-min Rain = 0
KME1 260216Z 14005KT 26/18 A2998 RMK A01 T02600175  RH  059%=      5-min Rain = 0
KME1 260217Z 15005KT 26/18 A2999 RMK A01 T02600175  RH  060%=      5-min Rain = 0
KME1 260218Z 15005KT 26/18 A2999 RMK A01 T02600176  RH  060%=      5-min Rain = 0
KME1 260219Z 15006KT 26/18 A2999 RMK A01 T02610177  RH  060%=      5-min Rain = 0
KME1 260220Z 14005KT 26/18 A2999 RMK A01 T02600177  RH  060%=      5-min Rain = 0
KME1 260221Z 15006KT 26/18 A2999 RMK A01 T02600177  RH  060%=      5-min Rain = 0
KME1 260222Z 14006KT 26/18 A2999 RMK A01 T02600178  RH  061%=      5-min Rain = 0
KME1 260223Z 14006KT 26/18 A2999 RMK A01 T02600178  RH  061%=      5-min Rain = 0
KME1 260224Z 15005KT 26/18 A2999 RMK A01 T02590178  RH  061%=      5-min Rain = 0
KME1 260225Z 15005KT 26/18 A2999 RMK A01 T02590179  RH  061%=      5-min Rain = 0
KME1 260226Z 15005KT 26/18 A2999 RMK A01 T02590180  RH  062%=      5-min Rain = 0
KME1 260227Z 15005KT 26/18 A2999 RMK A01 T02580180  RH  062%=      5-min Rain = 0
KME1 260228Z 15005KT 26/18 A2999 RMK A01 T02570180  RH  062%=      5-min Rain = 0
KME1 260229Z 15005KT 26/18 A2999 RMK A01 T02570181  RH  063%=      5-min Rain = 0
KME1 260230Z 15005KT 26/18 A2999 RMK A01 T02570181  RH  063%=      5-min Rain = 0
KME1 260231Z 14005KT 26/18 A2999 RMK A01 T02560181  RH  063%=      5-min Rain = 0
KME1 260232Z 15005KT 26/18 A2999 RMK A01 T02550182  RH  064%=      5-min Rain = 0
KME1 260233Z 15005KT 26/18 A2999 RMK A01 T02550182  RH  064%=      5-min Rain = 0
KME1 260234Z 15006KT 25/18 A2999 RMK A01 T02540182  RH  064%=      5-min Rain = 0
KME1 260235Z 15005KT 25/18 A2999 RMK A01 T02540182  RH  064%=      5-min Rain = 0
KME1 260236Z 15005KT 25/18 A2999 RMK A01 T02540182  RH  064%=      5-min Rain = 0
KME1 260237Z 15005KT 25/18 A2999 RMK A01 T02540182  RH  064%=      5-min Rain = 0
KME1 260238Z 15005KT 25/18 A2999 RMK A01 T02540182  RH  064%=      5-min Rain = 0
KME1 260239Z 15005KT 25/18 A2999 RMK A01 T02540182  RH  065%=      5-min Rain = 0
KME1 260240Z 15005KT 25/18 A30 RMK A01 T02540183  RH  065%=      5-min Rain = 0
KME1 260241Z 15005KT 25/18 A30 RMK A01 T02540183  RH  065%=      5-min Rain = 0
KME1 260242Z 15005KT 25/18 A30 RMK A01 T02530183  RH  065%=      5-min Rain = 0
KME1 260243Z 15005KT 25/18 A30 RMK A01 T02530183  RH  065%=      5-min Rain = 0
KME1 260244Z 15005KT 25/18 A30 RMK A01 T02530183  RH  065%=      5-min Rain = 0
KME1 260245Z 15005KT 25/18 A30 RMK A01 T02530183  RH  065%=      5-min Rain = 0
KME1 260246Z 15005KT 25/18 A30 RMK A01 T02520184  RH  066%=      5-min Rain = 0
KME1 260247Z 15005KT 25/18 A30 RMK A01 T02520184  RH  066%=      5-min Rain = 0
KME1 260248Z 15006KT 25/18 A30 RMK A01 T02520183  RH  066%=      5-min Rain = 0
KME1 260249Z 15005KT 25/18 A30 RMK A01 T02520183  RH  066%=      5-min Rain = 0
KME1 260250Z 15006KT 25/18 A30 RMK A01 T02520183  RH  066%=      5-min Rain = 0
KME1 260251Z 15005KT 25/18 A30 RMK A01 T02520184  RH  066%=      5-min Rain = 0
KME1 260252Z 15006KT 25/18 A30 RMK A01 T02520184  RH  066%=      5-min Rain = 0
KME1 260253Z 14005KT 25/18 A3001 RMK A01 T02520184  RH  066%=      5-min Rain = 0
KME1 260254Z 15005KT 25/19 A3001 RMK A01 T02520185  RH  066%=      5-min Rain = 0
KME1 260255Z 15005KT 25/19 A3001 RMK A01 T02520185  RH  066%=      5-min Rain = 0
KME1 260256Z 15006KT 25/19 A3001 RMK A01 T02520185  RH  066%=      5-min Rain = 0
KME1 260257Z 14006KT 25/19 A3001 RMK A01 T02520185  RH  066%=      5-min Rain = 0
KME1 260258Z 15005KT 25/19 A3001 RMK A01 T02520185  RH  066%=      5-min Rain = 0
KME1 260259Z 15005KT 25/19 A3001 RMK A01 T02520185  RH  067%=      5-min Rain = 0
KME1 260300Z 15005KT 25/19 A3001 RMK A01 T02510186  RH  067%=      5-min Rain = 0
KME1 260301Z 15005KT 25/19 A3001 RMK A01 T02510186  RH  067%=      5-min Rain = 0
KME1 260302Z 15005KT 25/19 A3001 RMK A01 T02500186  RH  067%=      5-min Rain = 0
KME1 260303Z 15004KT 25/19 A3001 RMK A01 T02500185  RH  067%=      5-min Rain = 0
KME1 260304Z 15005KT 25/19 A3001 RMK A01 T02490185  RH  068%=      5-min Rain = 0
KME1 260305Z 15006KT 25/19 A3001 RMK A01 T02490185  RH  067%=      5-min Rain = 0
KME1 260306Z 15005KT 25/19 A3002 RMK A01 T02500185  RH  067%=      5-min Rain = 0
KME1 260307Z 15005KT 25/19 A3002 RMK A01 T02490185  RH  068%=      5-min Rain = 0
KME1 260308Z 15004KT 25/19 A3002 RMK A01 T02490186  RH  068%=      5-min Rain = 0
KME1 260309Z 15005KT 25/19 A3002 RMK A01 T02490186  RH  068%=      5-min Rain = 0
KME1 260310Z 15005KT 25/19 A3002 RMK A01 T02480185  RH  068%=      5-min Rain = 0
KME1 260311Z 14006KT 25/19 A3002 RMK A01 T02480185  RH  068%=      5-min Rain = 0
KME1 260312Z 15006KT 25/19 A3002 RMK A01 T02490185  RH  068%=      5-min Rain = 0
KME1 260313Z 15005KT 25/19 A3002 RMK A01 T02480185  RH  068%=      5-min Rain = 0
KME1 260314Z 15005KT 25/19 A3002 RMK A01 T02490185  RH  068%=      5-min Rain = 0
KME1 260315Z 15006KT 25/19 A3002 RMK A01 T02490185  RH  068%=      5-min Rain = 0
KME1 260316Z 15005KT 25/19 A3002 RMK A01 T02490185  RH  068%=      5-min Rain = 0
KME1 260317Z 15006KT 25/19 A3002 RMK A01 T02480185  RH  068%=      5-min Rain = 0
KME1 260318Z 15006KT 25/19 A3002 RMK A01 T02490186  RH  068%=      5-min Rain = 0
KME1 260319Z 15005KT 25/19 A3002 RMK A01 T02490185  RH  068%=      5-min Rain = 0
KME1 260320Z 15005KT 25/19 A3003 RMK A01 T02490185  RH  068%=      5-min Rain = 0
KME1 260321Z 15006KT 25/19 A3003 RMK A01 T02490186  RH  068%=      5-min Rain = 0
KME1 260322Z 15006KT 25/19 A3003 RMK A01 T02490185  RH  067%=      5-min Rain = 0
KME1 260323Z 16006KT 25/19 A3003 RMK A01 T02490185  RH  068%=      5-min Rain = 0
KME1 260324Z 16005KT 25/19 A3003 RMK A01 T02490185  RH  068%=      5-min Rain = 0
KME1 260325Z 16005KT 25/19 A3003 RMK A01 T02490186  RH  068%=      5-min Rain = 0
KME1 260326Z 16006KT 25/19 A3003 RMK A01 T02480185  RH  068%=      5-min Rain = 0
KME1 260327Z 16005KT 25/19 A3003 RMK A01 T02480186  RH  068%=      5-min Rain = 0
KME1 260328Z 16005KT 25/19 A3003 RMK A01 T02480185  RH  068%=      5-min Rain = 0
KME1 260329Z 16005KT 25/19 A3003 RMK A01 T02470185  RH  068%=      5-min Rain = 0
KME1 260330Z 16005KT 25/19 A3003 RMK A01 T02470185  RH  068%=      5-min Rain = 0
KME1 260331Z 16005KT 25/19 A3003 RMK A01 T02470186  RH  069%=      5-min Rain = 0
KME1 260332Z 16006KT 25/19 A3004 RMK A01 T02470185  RH  069%=      5-min Rain = 0
KME1 260333Z 16006KT 25/19 A3004 RMK A01 T02470185  RH  069%=      5-min Rain = 0
KME1 260334Z 17006KT 25/19 A3004 RMK A01 T02470185  RH  069%=      5-min Rain = 0
KME1 260335Z 16006KT 25/19 A3004 RMK A01 T02460185  RH  069%=      5-min Rain = 0
KME1 260336Z 17006KT 25/19 A3004 RMK A01 T02470185  RH  069%=      5-min Rain = 0
KME1 260337Z 16006KT 25/19 A3004 RMK A01 T02460185  RH  069%=      5-min Rain = 0
KME1 260338Z 16005KT 25/19 A3004 RMK A01 T02470185  RH  069%=      5-min Rain = 0
KME1 260339Z 16005KT 25/19 A3004 RMK A01 T02470185  RH  069%=      5-min Rain = 0
KME1 260340Z 16005KT 25/19 A3004 RMK A01 T02470186  RH  069%=      5-min Rain = 0
KME1 260341Z 16004KT 25/19 A3004 RMK A01 T02460186  RH  069%=      5-min Rain = 0
KME1 260342Z 16005KT 25/19 A3004 RMK A01 T02450186  RH  069%=      5-min Rain = 0
KME1 260343Z 16005KT 25/19 A3004 RMK A01 T02450185  RH  069%=      5-min Rain = 0
KME1 260344Z 16005KT 25/19 A3004 RMK A01 T02450186  RH  070%=      5-min Rain = 0
KME1 260345Z 16005KT 24/19 A3005 RMK A01 T02440186  RH  070%=      5-min Rain = 0
KME1 260346Z 16005KT 24/19 A3005 RMK A01 T02430185  RH  070%=      5-min Rain = 0
KME1 260347Z 16004KT 24/19 A3005 RMK A01 T02430185  RH  070%=      5-min Rain = 0
KME1 260348Z 15005KT 24/19 A3005 RMK A01 T02430186  RH  070%=      5-min Rain = 0
KME1 260349Z 15004KT 24/19 A3005 RMK A01 T02420186  RH  071%=      5-min Rain = 0
KME1 260350Z 14004KT 24/19 A3005 RMK A01 T02420186  RH  071%=      5-min Rain = 0
KME1 260351Z 15005KT 24/19 A3005 RMK A01 T02410186  RH  071%=      5-min Rain = 0
KME1 260352Z 15004KT 24/19 A3005 RMK A01 T02410186  RH  071%=      5-min Rain = 0
KME1 260353Z 15003KT 24/19 A3005 RMK A01 T02400186  RH  072%=      5-min Rain = 0
KME1 260354Z 16004KT 24/19 A3006 RMK A01 T02400186  RH  072%=      5-min Rain = 0
KME1 260355Z 16004KT 24/19 A3006 RMK A01 T02390185  RH  072%=      5-min Rain = 0
KME1 260356Z 16003KT 24/19 A3006 RMK A01 T02400186  RH  072%=      5-min Rain = 0
KME1 260357Z 16004KT 24/19 A3006 RMK A01 T02390185  RH  072%=      5-min Rain = 0
KME1 260358Z 16003KT 24/19 A3006 RMK A01 T02390185  RH  072%=      5-min Rain = 0
KME1 260359Z 17004KT 24/19 A3006 RMK A01 T02400185  RH  072%=      5-min Rain = 0
KME1 260400Z 17003KT 24/19 A3006 RMK A01 T02400185  RH  071%=      5-min Rain = 0
KME1 260401Z 17003KT 24/19 A3006 RMK A01 T02400185  RH  071%=      5-min Rain = 0
KME1 260402Z 17003KT 24/19 A3006 RMK A01 T02400185  RH  071%=      5-min Rain = 0
KME1 260403Z 16003KT 24/19 A3007 RMK A01 T02400185  RH  071%=      5-min Rain = 0
KME1 260404Z 17003KT 24/19 A3007 RMK A01 T02400185  RH  071%=      5-min Rain = 0
KME1 260405Z 17003KT 24/19 A3007 RMK A01 T02400186  RH  072%=      5-min Rain = 0
KME1 260406Z 17003KT 24/19 A3007 RMK A01 T02390186  RH  072%=      5-min Rain = 0
KME1 260407Z 17003KT 24/19 A3007 RMK A01 T02390186  RH  072%=      5-min Rain = 0
KME1 260408Z 17002KT 24/19 A3007 RMK A01 T02390186  RH  072%=      5-min Rain = 0
KME1 260409Z 17002KT 24/19 A3007 RMK A01 T02390186  RH  072%=      5-min Rain = 0
KME1 260410Z 17002KT 24/19 A3007 RMK A01 T02390187  RH  073%=      5-min Rain = 0
KME1 260411Z 17002KT 24/19 A3007 RMK A01 T02390187  RH  073%=      5-min Rain = 0
KME1 260412Z 17002KT 24/19 A3007 RMK A01 T02380187  RH  073%=      5-min Rain = 0
KME1 260413Z 17001KT 24/19 A3007 RMK A01 T02370187  RH  073%=      5-min Rain = 0
KME1 260414Z 16001KT 24/19 A3007 RMK A01 T02360187  RH  074%=      5-min Rain = 0
KME1 260415Z 16001KT 24/19 A3007 RMK A01 T02360191  RH  076%=      5-min Rain = 0
KME1 260416Z 16001KT 24/19 A3007 RMK A01 T02350191  RH  076%=      5-min Rain = 0
KME1 260417Z 16002KT 23/19 A3007 RMK A01 T02340189  RH  076%=      5-min Rain = 0
KME1 260418Z 16002KT 23/19 A3007 RMK A01 T02330187  RH  075%=      5-min Rain = 0
KME1 260419Z 16002KT 23/19 A3007 RMK A01 T02320186  RH  075%=      5-min Rain = 0
KME1 260420Z 16002KT 23/19 A3007 RMK A01 T02320186  RH  075%=      5-min Rain = 0
KME1 260421Z 16002KT 23/19 A3007 RMK A01 T02320185  RH  075%=      5-min Rain = 0
KME1 260422Z 16002KT 23/19 A3007 RMK A01 T02320185  RH  075%=      5-min Rain = 0
KME1 260423Z 16002KT 23/19 A3007 RMK A01 T02320185  RH  075%=      5-min Rain = 0
KME1 260424Z 16002KT 23/19 A3007 RMK A01 T02320186  RH  075%=      5-min Rain = 0
KME1 260425Z 16002KT 23/19 A3007 RMK A01 T02310187  RH  076%=      5-min Rain = 0
KME1 260426Z 16002KT 23/19 A3008 RMK A01 T02310188  RH  077%=      5-min Rain = 0
KME1 260427Z 16002KT 23/19 A3008 RMK A01 T02300188  RH  077%=      5-min Rain = 0
KME1 260428Z 17001KT 23/19 A3008 RMK A01 T02290187  RH  077%=      5-min Rain = 0
KME1 260429Z 18002KT 23/19 A3008 RMK A01 T02290186  RH  077%=      5-min Rain = 0
KME1 260430Z 18002KT 23/19 A3008 RMK A01 T02290189  RH  078%=      5-min Rain = 0
KME1 260431Z 19002KT 23/19 A3008 RMK A01 T02280191  RH  079%=      5-min Rain = 0
KME1 260432Z 19002KT 23/19 A3008 RMK A01 T02270190  RH  080%=      5-min Rain = 0
KME1 260433Z 20002KT 23/19 A3008 RMK A01 T02260189  RH  079%=      5-min Rain = 0
KME1 260434Z 20002KT 23/19 A3008 RMK A01 T02260189  RH  080%=      5-min Rain = 0
KME1 260435Z 20002KT 23/19 A3008 RMK A01 T02250188  RH  080%=      5-min Rain = 0
KME1 260436Z 20002KT 22/19 A3008 RMK A01 T02240188  RH  080%=      5-min Rain = 0
KME1 260437Z 20002KT 22/19 A3008 RMK A01 T02240189  RH  081%=      5-min Rain = 0
KME1 260438Z 20003KT 22/19 A3008 RMK A01 T02230189  RH  081%=      5-min Rain = 0
KME1 260439Z 20003KT 22/19 A3008 RMK A01 T02220189  RH  081%=      5-min Rain = 0
KME1 260440Z 19003KT 22/19 A3008 RMK A01 T02220188  RH  081%=      5-min Rain = 0
KME1 260441Z 19004KT 22/19 A3008 RMK A01 T02220188  RH  081%=      5-min Rain = 0
KME1 260442Z 19004KT 22/19 A3008 RMK A01 T02210188  RH  081%=      5-min Rain = 0
KME1 260443Z 18003KT 22/19 A3008 RMK A01 T02210188  RH  082%=      5-min Rain = 0
KME1 260444Z 18003KT 22/19 A3008 RMK A01 T02200188  RH  082%=      5-min Rain = 0
KME1 260445Z 18004KT 22/19 A3008 RMK A01 T02190189  RH  083%=      5-min Rain = 0
KME1 260446Z 18004KT 22/19 A3008 RMK A01 T02190189  RH  083%=      5-min Rain = 0
KME1 260447Z 18004KT 22/19 A3008 RMK A01 T02190189  RH  083%=      5-min Rain = 0
KME1 260448Z 18004KT 22/19 A3008 RMK A01 T02190189  RH  083%=      5-min Rain = 0
KME1 260449Z 18004KT 22/19 A3008 RMK A01 T02180189  RH  083%=      5-min Rain = 0
KME1 260450Z 18003KT 22/19 A3008 RMK A01 T02180189  RH  084%=      5-min Rain = 0
KME1 260451Z 18003KT 22/19 A3008 RMK A01 T02170190  RH  084%=      5-min Rain = 0
KME1 260452Z 17003KT 22/19 A3007 RMK A01 T02150190  RH  085%=      5-min Rain = 0
KME1 260453Z 17003KT 21/19 A3007 RMK A01 T02140191  RH  086%=      5-min Rain = 0
KME1 260454Z 18003KT 21/19 A3007 RMK A01 T02130192  RH  088%=      5-min Rain = 0
KME1 260455Z 18003KT 21/19 A3007 RMK A01 T02120192  RH  088%=      5-min Rain = 0
KME1 260456Z 18003KT 21/19 A3007 RMK A01 T02120193  RH  089%=      5-min Rain = 0
KME1 260457Z 18003KT 21/19 A3007 RMK A01 T02120193  RH  089%=      5-min Rain = 0
KME1 260458Z 19004KT 21/19 A3007 RMK A01 T02110193  RH  089%=      5-min Rain = 0
KME1 260459Z 19004KT 21/19 A3007 RMK A01 T02110192  RH  089%=      5-min Rain = 0

Page generated in 0.1223 seconds.